SWR92 LSZH-SBGR
Flight info
| Callsign | SWR92 |
|---|---|
| Flight time | 11h 26m |
| Altitude | 31000 |
| Route | VEBIT T50 ROTOS Z669 ULMES DCT VADAR DCT NINTU DCT MEBAK DCT REPSI DCT LERGA DCT MINSO DCT NARAK/N0464F330 DCT AGN DCT MAQAB DCT TIVLI DCT ELSAP DCT ZAR DCT EXEMU DCT PISUS DCT EDIMU DCT ADUXO DCT NUSGO DCT OBIBO DCT NASOS DCT ANZAN DCT BLN DCT MGA DCT PIMOS DCT GALTO UN869 ADM UR975 DIDAN/N0469F340 UR975 ANITI UA302 PIVSA/N0470F360 UA302 TURUP DCT GANDO DCT ERETU UN857 UTRAM DCT IREKI/N0458F380 UZ21 VUNOX |
| Aircraft | A343/H-SDE2E3FGHIJ4J5M1RWXY/LB1D1 |
Departure
| Time | 2026-04-26 11:33 |
|---|---|
| Airport | Zürich Airport (LSZH) |
Arrival
| Time | 2026-04-26 23:00 |
|---|---|
| Airport | São Paulo/Guarulhos–Governor André Franco Montoro International Airport (SBGR) |
| Time | Latitude | Longitude | Altitude | Speed | Heading |
|---|---|---|---|---|---|
| 2026-04-26 11:03 | 47.46052 | 8.55529 | 1412 ft | 0 kts | 6° |
| 2026-04-26 11:21 | 47.46051 | 8.55529 | 1403 ft | 2 kts | 6° |
| 2026-04-26 11:21 | 47.46025 | 8.55526 | 1411 ft | 4 kts | 359° |
| 2026-04-26 11:21 | 47.45998 | 8.55529 | 1405 ft | 4 kts | 349° |
| 2026-04-26 11:22 | 47.45973 | 8.55541 | 1412 ft | 4 kts | 324° |
| 2026-04-26 11:22 | 47.45961 | 8.55564 | 1410 ft | 1 kts | 276° |
| 2026-04-26 11:26 | 47.45961 | 8.55554 | 1413 ft | 5 kts | 276° |
| 2026-04-26 11:26 | 47.45968 | 8.55461 | 1408 ft | 13 kts | 276° |
| 2026-04-26 11:26 | 47.45980 | 8.55297 | 1409 ft | 19 kts | 276° |
| 2026-04-26 11:27 | 47.45996 | 8.55070 | 1403 ft | 25 kts | 276° |
| 2026-04-26 11:27 | 47.46074 | 8.54900 | 1399 ft | 20 kts | 341° |
| 2026-04-26 11:27 | 47.46197 | 8.54824 | 1401 ft | 19 kts | 334° |
| 2026-04-26 11:27 | 47.46313 | 8.54742 | 1385 ft | 19 kts | 334° |
| 2026-04-26 11:28 | 47.46427 | 8.54662 | 1388 ft | 17 kts | 335° |
| 2026-04-26 11:28 | 47.46534 | 8.54589 | 1398 ft | 18 kts | 335° |
| 2026-04-26 11:28 | 47.46658 | 8.54504 | 1388 ft | 22 kts | 335° |
| 2026-04-26 11:28 | 47.46807 | 8.54411 | 1384 ft | 24 kts | 338° |
| 2026-04-26 11:29 | 47.46947 | 8.54316 | 1385 ft | 21 kts | 335° |
| 2026-04-26 11:29 | 47.47072 | 8.54230 | 1388 ft | 19 kts | 335° |
| 2026-04-26 11:29 | 47.47183 | 8.54153 | 1386 ft | 16 kts | 335° |
| 2026-04-26 11:29 | 47.47277 | 8.54089 | 1400 ft | 14 kts | 335° |
| 2026-04-26 11:30 | 47.47358 | 8.54033 | 1401 ft | 12 kts | 335° |
| 2026-04-26 11:30 | 47.47403 | 8.54003 | 1403 ft | 10 kts | 335° |
| 2026-04-26 11:30 | 47.47517 | 8.53926 | 1405 ft | 17 kts | 335° |
| 2026-04-26 11:30 | 47.47607 | 8.53814 | 1410 ft | 16 kts | 288° |
| 2026-04-26 11:31 | 47.47581 | 8.53661 | 1410 ft | 16 kts | 244° |
| 2026-04-26 11:31 | 47.47497 | 8.53642 | 1409 ft | 14 kts | 153° |
| 2026-04-26 11:31 | 47.47481 | 8.53654 | 1408 ft | 0 kts | 153° |
| 2026-04-26 11:32 | 47.47467 | 8.53664 | 1404 ft | 9 kts | 153° |
| 2026-04-26 11:32 | 47.47270 | 8.53801 | 1401 ft | 61 kts | 155° |
| 2026-04-26 11:32 | 47.46712 | 8.54182 | 1381 ft | 115 kts | 154° |
| 2026-04-26 11:33 | 47.45848 | 8.54778 | 1403 ft | 158 kts | 156° |
| 2026-04-26 11:33 | 47.44787 | 8.55495 | 1738 ft | 167 kts | 151° |
| 2026-04-26 11:33 | 47.43705 | 8.56275 | 2066 ft | 181 kts | 141° |
| 2026-04-26 11:33 | 47.43099 | 8.57866 | 2396 ft | 183 kts | 88° |
| 2026-04-26 11:34 | 47.43550 | 8.59617 | 2772 ft | 193 kts | 44° |
| 2026-04-26 11:34 | 47.44797 | 8.60378 | 3032 ft | 209 kts | 360° |
| 2026-04-26 11:34 | 47.46185 | 8.59609 | 3583 ft | 220 kts | 329° |
| 2026-04-26 11:34 | 47.47322 | 8.58062 | 4215 ft | 227 kts | 309° |
| 2026-04-26 11:35 | 47.47903 | 8.55843 | 4712 ft | 239 kts | 283° |
| 2026-04-26 11:35 | 47.48074 | 8.53322 | 5028 ft | 258 kts | 264° |
| 2026-04-26 11:35 | 47.47492 | 8.50742 | 5416 ft | 272 kts | 242° |
| 2026-04-26 11:35 | 47.46881 | 8.49057 | 5765 ft | 278 kts | 240° |
| 2026-04-26 11:36 | 47.45570 | 8.45722 | 6367 ft | 293 kts | 239° |
| 2026-04-26 11:36 | 47.44503 | 8.43091 | 6833 ft | 303 kts | 238° |
| 2026-04-26 11:36 | 47.43399 | 8.40400 | 7389 ft | 309 kts | 238° |
| 2026-04-26 11:36 | 47.42280 | 8.37671 | 8004 ft | 313 kts | 238° |
| 2026-04-26 11:37 | 47.41142 | 8.34912 | 8587 ft | 316 kts | 238° |
| 2026-04-26 11:37 | 47.39992 | 8.32132 | 9203 ft | 319 kts | 238° |
| 2026-04-26 11:37 | 47.38830 | 8.29325 | 9778 ft | 322 kts | 238° |
| 2026-04-26 11:37 | 47.37660 | 8.26498 | 10325 ft | 324 kts | 239° |
| 2026-04-26 11:38 | 47.36480 | 8.23656 | 10853 ft | 326 kts | 239° |
| 2026-04-26 11:38 | 47.35294 | 8.20798 | 11363 ft | 328 kts | 239° |
| 2026-04-26 11:38 | 47.34097 | 8.17920 | 11869 ft | 332 kts | 239° |
| 2026-04-26 11:38 | 47.32865 | 8.14965 | 12116 ft | 344 kts | 239° |
| 2026-04-26 11:39 | 47.31592 | 8.11908 | 12343 ft | 356 kts | 240° |
| 2026-04-26 11:39 | 47.30275 | 8.08750 | 12599 ft | 367 kts | 239° |
| 2026-04-26 11:39 | 47.28926 | 8.05522 | 12999 ft | 373 kts | 239° |
| 2026-04-26 11:39 | 47.27564 | 8.02255 | 13515 ft | 375 kts | 240° |
| 2026-04-26 11:40 | 47.26331 | 7.98862 | 14043 ft | 377 kts | 246° |
| 2026-04-26 11:40 | 47.25252 | 7.95341 | 14511 ft | 379 kts | 249° |
| 2026-04-26 11:40 | 47.24248 | 7.91748 | 14971 ft | 382 kts | 249° |
| 2026-04-26 11:40 | 47.23269 | 7.88107 | 15507 ft | 382 kts | 250° |
| 2026-04-26 11:41 | 47.22292 | 7.84468 | 16083 ft | 382 kts | 249° |
| 2026-04-26 11:42 | 47.12599 | 7.60486 | 19183 ft | 402 kts | 233° |
| 2026-04-26 11:43 | 47.10829 | 7.57271 | 19559 ft | 405 kts | 232° |
| 2026-04-26 11:43 | 47.09076 | 7.54085 | 19893 ft | 409 kts | 233° |
| 2026-04-26 11:43 | 47.07269 | 7.50785 | 20354 ft | 409 kts | 233° |
| 2026-04-26 11:43 | 47.05486 | 7.47520 | 20773 ft | 411 kts | 232° |
| 2026-04-26 11:44 | 47.03699 | 7.44243 | 21097 ft | 414 kts | 232° |
| 2026-04-26 11:44 | 47.01923 | 7.40977 | 21480 ft | 416 kts | 233° |
| 2026-04-26 11:44 | 47.00118 | 7.37667 | 21947 ft | 415 kts | 233° |
| 2026-04-26 11:44 | 46.98305 | 7.34358 | 22268 ft | 418 kts | 232° |
| 2026-04-26 11:45 | 46.96473 | 7.31022 | 22591 ft | 421 kts | 232° |
| 2026-04-26 11:45 | 46.94635 | 7.27677 | 22981 ft | 422 kts | 233° |
| 2026-04-26 11:45 | 46.92793 | 7.24314 | 23266 ft | 426 kts | 232° |
| 2026-04-26 11:45 | 46.90931 | 7.20921 | 23542 ft | 429 kts | 233° |
| 2026-04-26 11:46 | 46.89062 | 7.17519 | 23912 ft | 430 kts | 233° |
| 2026-04-26 11:46 | 46.87185 | 7.14106 | 24215 ft | 431 kts | 232° |
| 2026-04-26 11:46 | 46.85299 | 7.10682 | 24484 ft | 433 kts | 232° |
| 2026-04-26 11:46 | 46.83410 | 7.07255 | 24807 ft | 434 kts | 232° |
| 2026-04-26 11:47 | 46.81515 | 7.03819 | 25089 ft | 435 kts | 232° |
| 2026-04-26 11:47 | 46.79609 | 7.00368 | 25336 ft | 437 kts | 232° |
| 2026-04-26 11:47 | 46.77697 | 6.96912 | 25641 ft | 438 kts | 232° |
| 2026-04-26 11:47 | 46.75777 | 6.93447 | 25925 ft | 440 kts | 232° |
| 2026-04-26 11:48 | 46.73845 | 6.89976 | 26121 ft | 443 kts | 232° |
| 2026-04-26 11:48 | 46.71901 | 6.86477 | 26340 ft | 445 kts | 232° |
| 2026-04-26 11:48 | 46.69952 | 6.82967 | 26617 ft | 446 kts | 232° |
| 2026-04-26 11:48 | 46.68001 | 6.79459 | 26891 ft | 447 kts | 232° |
| 2026-04-26 11:49 | 46.66097 | 6.75883 | 27136 ft | 447 kts | 236° |
| 2026-04-26 11:49 | 46.64957 | 6.73385 | 27290 ft | 448 kts | 238° |
| 2026-04-26 11:49 | 46.63284 | 6.69550 | 27525 ft | 449 kts | 239° |
| 2026-04-26 11:49 | 46.61642 | 6.65672 | 27760 ft | 450 kts | 239° |
| 2026-04-26 11:50 | 46.60014 | 6.61773 | 28013 ft | 452 kts | 239° |
| 2026-04-26 11:50 | 46.58389 | 6.57866 | 28240 ft | 453 kts | 239° |
| 2026-04-26 11:50 | 46.56757 | 6.53944 | 28471 ft | 454 kts | 239° |
| 2026-04-26 11:50 | 46.55120 | 6.50015 | 28698 ft | 455 kts | 239° |
| 2026-04-26 11:51 | 46.53479 | 6.46086 | 28906 ft | 456 kts | 239° |
| 2026-04-26 11:51 | 46.51820 | 6.42136 | 29011 ft | 460 kts | 239° |
| 2026-04-26 11:51 | 46.50151 | 6.38167 | 29185 ft | 461 kts | 239° |
| 2026-04-26 11:51 | 46.48473 | 6.34191 | 29424 ft | 462 kts | 239° |
| 2026-04-26 11:52 | 46.46802 | 6.30234 | 29786 ft | 459 kts | 239° |
| 2026-04-26 11:52 | 46.45136 | 6.26291 | 30110 ft | 458 kts | 239° |
| 2026-04-26 11:52 | 46.43471 | 6.22357 | 30304 ft | 458 kts | 239° |
| 2026-04-26 11:52 | 46.41809 | 6.18432 | 30554 ft | 457 kts | 239° |
| 2026-04-26 11:53 | 46.40147 | 6.14513 | 30802 ft | 456 kts | 239° |
| 2026-04-26 11:53 | 46.38484 | 6.10603 | 30994 ft | 456 kts | 239° |
| 2026-04-26 11:53 | 46.36818 | 6.06697 | 31149 ft | 457 kts | 239° |
| 2026-04-26 11:54 | 46.33515 | 5.98966 | 31186 ft | 447 kts | 239° |
| 2026-04-26 11:54 | 46.30235 | 5.91302 | 31177 ft | 449 kts | 239° |
| 2026-04-26 11:55 | 46.26936 | 5.83604 | 31176 ft | 452 kts | 239° |
| 2026-04-26 11:55 | 46.23583 | 5.75800 | 31166 ft | 462 kts | 239° |
| 2026-04-26 11:56 | 46.20158 | 5.67855 | 31159 ft | 470 kts | 238° |
| 2026-04-26 11:56 | 46.16662 | 5.59790 | 31152 ft | 478 kts | 238° |
| 2026-04-26 11:57 | 46.13075 | 5.51614 | 31156 ft | 486 kts | 237° |
| 2026-04-26 11:57 | 46.09224 | 5.43587 | 31157 ft | 487 kts | 236° |
| 2026-04-26 11:58 | 46.05314 | 5.35619 | 31157 ft | 487 kts | 236° |
| 2026-04-26 11:58 | 46.01435 | 5.27654 | 31161 ft | 485 kts | 236° |
| 2026-04-26 11:59 | 45.97583 | 5.19697 | 31167 ft | 484 kts | 236° |
| 2026-04-26 11:59 | 45.93736 | 5.11750 | 31172 ft | 485 kts | 237° |
| 2026-04-26 12:00 | 45.89845 | 5.03743 | 31172 ft | 493 kts | 237° |
| 2026-04-26 12:00 | 45.85911 | 4.95669 | 31154 ft | 493 kts | 236° |
| 2026-04-26 12:01 | 45.82001 | 4.87674 | 31159 ft | 488 kts | 236° |
| 2026-04-26 12:01 | 45.78098 | 4.79712 | 31158 ft | 487 kts | 236° |
| 2026-04-26 12:02 | 45.74197 | 4.71776 | 31159 ft | 487 kts | 236° |
| 2026-04-26 12:02 | 45.70269 | 4.63807 | 31171 ft | 494 kts | 236° |
| 2026-04-26 12:03 | 45.66299 | 4.55775 | 31173 ft | 500 kts | 236° |
| 2026-04-26 12:03 | 45.62276 | 4.47668 | 31180 ft | 500 kts | 236° |
| 2026-04-26 12:04 | 45.58258 | 4.39590 | 31184 ft | 499 kts | 235° |
| 2026-04-26 12:04 | 45.54233 | 4.31518 | 31184 ft | 499 kts | 236° |
| 2026-04-26 12:05 | 45.50206 | 4.23452 | 31183 ft | 501 kts | 236° |
| 2026-04-26 12:05 | 45.46138 | 4.15346 | 31183 ft | 503 kts | 236° |
| 2026-04-26 12:06 | 45.42060 | 4.07247 | 31180 ft | 503 kts | 236° |
| 2026-04-26 12:06 | 45.37976 | 3.99165 | 31175 ft | 503 kts | 236° |
| 2026-04-26 12:07 | 45.33885 | 3.91087 | 31181 ft | 503 kts | 235° |
| 2026-04-26 12:07 | 45.29796 | 3.83027 | 31187 ft | 503 kts | 236° |
| 2026-04-26 12:08 | 45.25684 | 3.74938 | 31162 ft | 506 kts | 236° |
| 2026-04-26 12:08 | 45.21620 | 3.66788 | 31168 ft | 506 kts | 237° |
| 2026-04-26 12:09 | 45.17635 | 3.58646 | 31167 ft | 506 kts | 237° |
| 2026-04-26 12:09 | 45.13611 | 3.50458 | 31174 ft | 506 kts | 236° |
| 2026-04-26 12:10 | 45.09586 | 3.42333 | 31174 ft | 504 kts | 236° |
| 2026-04-26 12:10 | 45.05557 | 3.34232 | 31182 ft | 503 kts | 236° |
| 2026-04-26 12:11 | 45.01529 | 3.26159 | 31176 ft | 503 kts | 236° |
| 2026-04-26 12:11 | 44.97490 | 3.18088 | 31185 ft | 503 kts | 236° |
| 2026-04-26 12:12 | 44.93460 | 3.10047 | 31183 ft | 501 kts | 236° |
| 2026-04-26 12:12 | 44.89434 | 3.02042 | 31185 ft | 501 kts | 236° |
| 2026-04-26 12:13 | 44.85368 | 2.93986 | 31183 ft | 506 kts | 236° |
| 2026-04-26 12:13 | 44.81398 | 2.85804 | 31186 ft | 505 kts | 239° |
| 2026-04-26 12:14 | 44.77621 | 2.77463 | 31184 ft | 505 kts | 239° |
| 2026-04-26 12:14 | 44.73837 | 2.69123 | 31182 ft | 505 kts | 239° |
| 2026-04-26 12:15 | 44.70011 | 2.60828 | 31180 ft | 506 kts | 239° |
| 2026-04-26 12:15 | 44.66160 | 2.52535 | 31182 ft | 507 kts | 239° |
| 2026-04-26 12:16 | 44.62296 | 2.44250 | 31187 ft | 507 kts | 239° |
| 2026-04-26 12:16 | 44.58430 | 2.35981 | 31181 ft | 506 kts | 239° |
| 2026-04-26 12:17 | 44.54564 | 2.27756 | 31172 ft | 505 kts | 239° |
| 2026-04-26 12:17 | 44.50729 | 2.19614 | 31184 ft | 504 kts | 239° |
| 2026-04-26 12:18 | 44.46867 | 2.11423 | 31183 ft | 504 kts | 239° |
| 2026-04-26 12:18 | 44.42996 | 2.03246 | 31184 ft | 504 kts | 239° |
| 2026-04-26 12:19 | 44.39129 | 1.95086 | 31184 ft | 503 kts | 239° |
| 2026-04-26 12:19 | 44.35262 | 1.86954 | 31184 ft | 502 kts | 239° |
| 2026-04-26 12:20 | 44.31398 | 1.78842 | 31184 ft | 501 kts | 238° |
| 2026-04-26 12:20 | 44.27539 | 1.70725 | 31346 ft | 502 kts | 239° |
| 2026-04-26 12:21 | 44.23783 | 1.62530 | 31528 ft | 501 kts | 240° |
| 2026-04-26 12:21 | 44.20046 | 1.54338 | 31662 ft | 500 kts | 240° |
| 2026-04-26 12:22 | 44.16294 | 1.46176 | 31796 ft | 500 kts | 239° |
| 2026-04-26 12:22 | 44.12526 | 1.38045 | 31907 ft | 500 kts | 239° |
| 2026-04-26 12:23 | 44.08751 | 1.29919 | 31986 ft | 500 kts | 239° |
| 2026-04-26 12:23 | 44.04967 | 1.21806 | 32064 ft | 500 kts | 239° |
| 2026-04-26 12:24 | 44.01179 | 1.13702 | 32115 ft | 500 kts | 239° |
| 2026-04-26 12:24 | 43.97389 | 1.05605 | 32184 ft | 500 kts | 239° |
| 2026-04-26 12:25 | 43.91687 | 0.93473 | 32273 ft | 500 kts | 238° |
| 2026-04-26 12:25 | 43.87431 | 0.85835 | 32323 ft | 503 kts | 226° |
| 2026-04-26 12:26 | 43.82326 | 0.79190 | 32392 ft | 504 kts | 223° |
| 2026-04-26 12:26 | 43.77090 | 0.72759 | 32483 ft | 503 kts | 222° |
| 2026-04-26 12:27 | 43.71835 | 0.66360 | 32565 ft | 503 kts | 223° |
| 2026-04-26 12:27 | 43.66595 | 0.59960 | 32629 ft | 503 kts | 223° |
| 2026-04-26 12:28 | 43.61363 | 0.53553 | 32682 ft | 502 kts | 223° |
| 2026-04-26 12:28 | 43.56150 | 0.47167 | 32763 ft | 501 kts | 223° |
| 2026-04-26 12:29 | 43.50932 | 0.40786 | 32818 ft | 501 kts | 223° |
| 2026-04-26 12:30 | 43.43085 | 0.31233 | 32901 ft | 502 kts | 222° |
| 2026-04-26 12:30 | 43.37853 | 0.24889 | 32948 ft | 501 kts | 222° |
| 2026-04-26 12:31 | 43.29999 | 0.15422 | 33033 ft | 501 kts | 222° |
| 2026-04-26 12:31 | 43.24762 | 0.09119 | 33066 ft | 501 kts | 222° |
| 2026-04-26 12:32 | 43.19526 | 0.02822 | 33091 ft | 500 kts | 221° |
| 2026-04-26 12:33 | 43.11686 | -0.06563 | 33159 ft | 502 kts | 222° |
| 2026-04-26 12:33 | 43.06428 | -0.12851 | 33204 ft | 502 kts | 222° |
| 2026-04-26 12:34 | 43.02013 | -0.18110 | 33205 ft | 502 kts | 221° |
| 2026-04-26 12:34 | 42.95924 | -0.25358 | 33197 ft | 500 kts | 221° |
| 2026-04-26 12:35 | 42.90677 | -0.31583 | 33190 ft | 499 kts | 221° |
| 2026-04-26 12:35 | 42.85438 | -0.37784 | 33182 ft | 499 kts | 221° |
| 2026-04-26 12:36 | 42.80888 | -0.42715 | 33184 ft | 499 kts | 212° |
| 2026-04-26 12:36 | 42.74678 | -0.46783 | 33170 ft | 500 kts | 202° |
| 2026-04-26 12:37 | 42.68203 | -0.50231 | 33161 ft | 500 kts | 201° |
| 2026-04-26 12:37 | 42.61688 | -0.53591 | 33166 ft | 501 kts | 201° |
| 2026-04-26 12:38 | 42.55205 | -0.56958 | 33163 ft | 498 kts | 201° |
| 2026-04-26 12:38 | 42.48739 | -0.60323 | 33157 ft | 498 kts | 201° |
| 2026-04-26 12:39 | 42.42274 | -0.63684 | 33144 ft | 498 kts | 201° |
| 2026-04-26 12:39 | 42.35849 | -0.67053 | 33143 ft | 493 kts | 202° |
| 2026-04-26 12:40 | 42.29447 | -0.70393 | 33144 ft | 492 kts | 202° |
| 2026-04-26 12:40 | 42.23059 | -0.73709 | 33143 ft | 492 kts | 202° |
| 2026-04-26 12:41 | 42.16680 | -0.77009 | 33137 ft | 490 kts | 202° |
| 2026-04-26 12:41 | 42.10319 | -0.80292 | 33138 ft | 489 kts | 202° |
| 2026-04-26 12:42 | 42.03966 | -0.83564 | 33141 ft | 489 kts | 202° |
| 2026-04-26 12:42 | 41.97615 | -0.86834 | 33133 ft | 489 kts | 202° |
| 2026-04-26 12:43 | 41.91267 | -0.90089 | 33134 ft | 488 kts | 202° |
| 2026-04-26 12:43 | 41.84927 | -0.93330 | 33132 ft | 487 kts | 202° |
| 2026-04-26 12:44 | 41.78635 | -0.96543 | 33130 ft | 488 kts | 202° |
| 2026-04-26 12:44 | 41.72297 | -0.99773 | 33129 ft | 487 kts | 201° |
| 2026-04-26 12:45 | 41.66049 | -1.03237 | 33132 ft | 486 kts | 209° |
| 2026-04-26 12:45 | 41.60338 | -1.08024 | 33129 ft | 485 kts | 214° |
| 2026-04-26 12:46 | 41.54776 | -1.13121 | 33126 ft | 485 kts | 215° |
| 2026-04-26 12:46 | 41.49233 | -1.18257 | 33132 ft | 485 kts | 216° |
| 2026-04-26 12:47 | 41.43681 | -1.23363 | 33146 ft | 484 kts | 215° |
| 2026-04-26 12:47 | 41.38129 | -1.28436 | 33143 ft | 484 kts | 215° |
| 2026-04-26 12:48 | 41.32569 | -1.33498 | 33144 ft | 485 kts | 215° |
| 2026-04-26 12:48 | 41.26989 | -1.38568 | 33146 ft | 486 kts | 214° |
| 2026-04-26 12:49 | 41.21405 | -1.43644 | 33140 ft | 486 kts | 215° |
| 2026-04-26 12:49 | 41.15820 | -1.48711 | 33149 ft | 486 kts | 215° |
| 2026-04-26 12:50 | 41.10227 | -1.53763 | 33136 ft | 487 kts | 214° |
| 2026-04-26 12:50 | 41.04621 | -1.58814 | 33140 ft | 487 kts | 214° |
| 2026-04-26 12:51 | 40.99013 | -1.63859 | 33145 ft | 487 kts | 214° |
| 2026-04-26 12:51 | 40.93408 | -1.68893 | 33141 ft | 487 kts | 214° |
| 2026-04-26 12:52 | 40.87796 | -1.73924 | 33151 ft | 488 kts | 214° |
| 2026-04-26 12:52 | 40.82168 | -1.78958 | 33149 ft | 489 kts | 214° |
| 2026-04-26 12:53 | 40.76526 | -1.83995 | 33141 ft | 489 kts | 214° |
| 2026-04-26 12:53 | 40.70887 | -1.89015 | 33143 ft | 489 kts | 214° |
| 2026-04-26 12:54 | 40.65243 | -1.94025 | 33140 ft | 488 kts | 214° |
| 2026-04-26 12:54 | 40.59610 | -1.99017 | 33142 ft | 488 kts | 214° |
| 2026-04-26 12:55 | 40.53978 | -2.03998 | 33143 ft | 488 kts | 214° |
| 2026-04-26 12:55 | 40.48342 | -2.08969 | 33138 ft | 488 kts | 214° |
| 2026-04-26 12:56 | 40.42704 | -2.13935 | 33134 ft | 489 kts | 214° |
| 2026-04-26 12:56 | 40.37054 | -2.18909 | 33133 ft | 490 kts | 213° |
| 2026-04-26 12:57 | 40.31390 | -2.23879 | 33131 ft | 490 kts | 213° |
| 2026-04-26 12:57 | 40.25722 | -2.28839 | 33130 ft | 490 kts | 213° |
| 2026-04-26 12:58 | 40.17270 | -2.36220 | 33125 ft | 490 kts | 213° |
| 2026-04-26 12:58 | 40.11554 | -2.41200 | 33125 ft | 491 kts | 213° |
| 2026-04-26 12:59 | 40.05908 | -2.46109 | 33124 ft | 491 kts | 213° |
| 2026-04-26 12:59 | 40.00225 | -2.51040 | 33127 ft | 491 kts | 213° |
| 2026-04-26 13:00 | 39.94529 | -2.55972 | 33130 ft | 493 kts | 213° |
| 2026-04-26 13:00 | 39.88815 | -2.60910 | 33137 ft | 493 kts | 213° |
| 2026-04-26 13:01 | 39.83096 | -2.65842 | 33136 ft | 493 kts | 213° |
| 2026-04-26 13:01 | 39.77383 | -2.70759 | 33137 ft | 492 kts | 213° |
| 2026-04-26 13:02 | 39.71673 | -2.75663 | 33139 ft | 493 kts | 213° |
| 2026-04-26 13:02 | 39.65945 | -2.80574 | 33137 ft | 494 kts | 213° |
| 2026-04-26 13:03 | 39.60216 | -2.85480 | 33137 ft | 493 kts | 213° |
| 2026-04-26 13:03 | 39.54483 | -2.90374 | 33133 ft | 493 kts | 213° |
| 2026-04-26 13:04 | 39.48737 | -2.95271 | 33136 ft | 495 kts | 213° |
| 2026-04-26 13:04 | 39.42976 | -3.00171 | 33133 ft | 496 kts | 213° |
| 2026-04-26 13:05 | 39.36847 | -3.04230 | 33129 ft | 495 kts | 202° |
| 2026-04-26 13:05 | 39.30442 | -3.07468 | 33122 ft | 494 kts | 200° |
| 2026-04-26 13:06 | 39.23997 | -3.10566 | 33116 ft | 495 kts | 200° |
| 2026-04-26 13:06 | 39.17587 | -3.13642 | 33116 ft | 495 kts | 200° |
| 2026-04-26 13:07 | 39.11133 | -3.16756 | 33110 ft | 495 kts | 200° |
| 2026-04-26 13:07 | 39.04680 | -3.19874 | 33109 ft | 496 kts | 200° |
| 2026-04-26 13:08 | 38.98210 | -3.22995 | 33097 ft | 497 kts | 200° |
| 2026-04-26 13:08 | 38.91738 | -3.26109 | 33096 ft | 497 kts | 200° |
| 2026-04-26 13:09 | 38.85261 | -3.29222 | 33096 ft | 497 kts | 200° |
| 2026-04-26 13:09 | 38.78777 | -3.32332 | 33098 ft | 499 kts | 200° |
| 2026-04-26 13:10 | 38.72278 | -3.35441 | 33096 ft | 499 kts | 200° |
| 2026-04-26 13:10 | 38.65772 | -3.38548 | 33095 ft | 499 kts | 200° |
| 2026-04-26 13:11 | 38.59259 | -3.41652 | 33089 ft | 499 kts | 200° |
| 2026-04-26 13:11 | 38.52755 | -3.44746 | 33092 ft | 498 kts | 201° |
| 2026-04-26 13:12 | 38.46280 | -3.47820 | 33093 ft | 497 kts | 200° |
| 2026-04-26 13:12 | 38.39808 | -3.50887 | 33090 ft | 496 kts | 200° |
| 2026-04-26 13:13 | 38.33338 | -3.53947 | 33086 ft | 496 kts | 200° |
| 2026-04-26 13:13 | 38.26866 | -3.57002 | 33084 ft | 496 kts | 200° |
| 2026-04-26 13:14 | 38.20397 | -3.60050 | 33081 ft | 496 kts | 200° |
| 2026-04-26 13:14 | 38.13932 | -3.63099 | 33080 ft | 496 kts | 201° |
| 2026-04-26 13:15 | 38.07633 | -3.66550 | 33078 ft | 497 kts | 205° |
| 2026-04-26 13:15 | 38.02374 | -3.69647 | 33079 ft | 498 kts | 205° |
| 2026-04-26 13:16 | 37.95058 | -3.73889 | 33079 ft | 498 kts | 204° |
| 2026-04-26 13:16 | 37.88737 | -3.77472 | 33079 ft | 498 kts | 204° |
| 2026-04-26 13:17 | 37.79235 | -3.82810 | 33069 ft | 498 kts | 204° |
| 2026-04-26 13:18 | 37.69747 | -3.88127 | 33076 ft | 497 kts | 204° |
| 2026-04-26 13:19 | 37.60259 | -3.93434 | 33075 ft | 498 kts | 204° |
| 2026-04-26 13:19 | 37.53928 | -3.96967 | 33076 ft | 498 kts | 204° |
| 2026-04-26 13:20 | 37.47591 | -4.00496 | 33074 ft | 498 kts | 204° |
| 2026-04-26 13:20 | 37.41259 | -4.04016 | 33073 ft | 497 kts | 204° |
| 2026-04-26 13:21 | 37.34924 | -4.07530 | 33070 ft | 497 kts | 204° |
| 2026-04-26 13:21 | 37.28597 | -4.11034 | 33072 ft | 497 kts | 204° |
| 2026-04-26 13:22 | 37.22267 | -4.14533 | 33077 ft | 497 kts | 204° |
| 2026-04-26 13:22 | 37.17008 | -4.17436 | 33078 ft | 497 kts | 204° |
| 2026-04-26 13:23 | 37.10672 | -4.20927 | 33080 ft | 498 kts | 204° |
| 2026-04-26 13:23 | 37.04325 | -4.24417 | 33089 ft | 498 kts | 204° |
| 2026-04-26 13:24 | 36.97973 | -4.27904 | 33093 ft | 498 kts | 204° |
| 2026-04-26 13:24 | 36.91625 | -4.31382 | 33099 ft | 498 kts | 204° |
| 2026-04-26 13:25 | 36.85274 | -4.34855 | 33102 ft | 498 kts | 204° |
| 2026-04-26 13:25 | 36.79136 | -4.38819 | 33103 ft | 497 kts | 212° |
| 2026-04-26 13:26 | 36.73272 | -4.43382 | 33102 ft | 497 kts | 213° |
| 2026-04-26 13:26 | 36.67456 | -4.48033 | 33103 ft | 497 kts | 214° |
| 2026-04-26 13:27 | 36.61633 | -4.52680 | 33103 ft | 497 kts | 214° |
| 2026-04-26 13:27 | 36.55797 | -4.57309 | 33094 ft | 498 kts | 214° |
| 2026-04-26 13:28 | 36.49946 | -4.61933 | 33096 ft | 499 kts | 214° |
| 2026-04-26 13:28 | 36.44076 | -4.66561 | 33088 ft | 500 kts | 214° |
| 2026-04-26 13:29 | 36.38202 | -4.71184 | 33089 ft | 499 kts | 214° |
| 2026-04-26 13:29 | 36.32337 | -4.75793 | 33084 ft | 499 kts | 214° |
| 2026-04-26 13:30 | 36.26472 | -4.80394 | 33085 ft | 499 kts | 214° |
| 2026-04-26 13:30 | 36.20603 | -4.84990 | 33078 ft | 499 kts | 214° |
| 2026-04-26 13:31 | 36.14734 | -4.89578 | 33071 ft | 499 kts | 214° |
| 2026-04-26 13:31 | 36.08882 | -4.94193 | 33070 ft | 498 kts | 214° |
| 2026-04-26 13:32 | 36.03047 | -4.98819 | 33068 ft | 498 kts | 214° |
| 2026-04-26 13:32 | 35.97209 | -5.03435 | 33071 ft | 498 kts | 214° |
| 2026-04-26 13:33 | 35.91370 | -5.08038 | 33071 ft | 498 kts | 214° |
| 2026-04-26 13:33 | 35.85520 | -5.12638 | 33061 ft | 498 kts | 214° |
| 2026-04-26 13:34 | 35.79784 | -5.17316 | 33054 ft | 497 kts | 218° |
| 2026-04-26 13:34 | 35.74285 | -5.22468 | 33050 ft | 497 kts | 220° |
| 2026-04-26 13:35 | 35.68818 | -5.27673 | 33049 ft | 497 kts | 219° |
| 2026-04-26 13:35 | 35.63304 | -5.32810 | 33042 ft | 497 kts | 219° |
| 2026-04-26 13:36 | 35.57778 | -5.37885 | 33047 ft | 496 kts | 219° |
| 2026-04-26 13:36 | 35.52247 | -5.42943 | 33044 ft | 495 kts | 219° |
| 2026-04-26 13:37 | 35.46719 | -5.47993 | 33034 ft | 495 kts | 219° |
| 2026-04-26 13:37 | 35.41189 | -5.53038 | 33012 ft | 495 kts | 219° |
| 2026-04-26 13:38 | 35.35662 | -5.58073 | 32992 ft | 494 kts | 219° |
| 2026-04-26 13:38 | 35.30150 | -5.63086 | 32983 ft | 493 kts | 219° |
| 2026-04-26 13:39 | 35.24650 | -5.68078 | 32955 ft | 492 kts | 219° |
| 2026-04-26 13:39 | 35.19151 | -5.73062 | 32943 ft | 492 kts | 218° |
| 2026-04-26 13:40 | 35.13645 | -5.78044 | 32941 ft | 492 kts | 218° |
| 2026-04-26 13:40 | 35.08141 | -5.83016 | 32920 ft | 492 kts | 218° |
| 2026-04-26 13:41 | 35.02641 | -5.87974 | 32929 ft | 491 kts | 218° |
| 2026-04-26 13:41 | 34.97150 | -5.92916 | 32923 ft | 491 kts | 218° |
| 2026-04-26 13:42 | 34.91653 | -5.97855 | 32923 ft | 491 kts | 218° |
| 2026-04-26 13:42 | 34.86159 | -6.02783 | 32917 ft | 491 kts | 218° |
| 2026-04-26 13:43 | 34.80658 | -6.07709 | 32916 ft | 490 kts | 218° |
| 2026-04-26 13:43 | 34.75172 | -6.12613 | 32916 ft | 489 kts | 218° |
| 2026-04-26 13:44 | 34.69692 | -6.17503 | 32914 ft | 488 kts | 217° |
| 2026-04-26 13:44 | 34.64212 | -6.22385 | 32914 ft | 488 kts | 218° |
| 2026-04-26 13:45 | 34.58733 | -6.27258 | 32914 ft | 488 kts | 218° |
| 2026-04-26 13:45 | 34.53261 | -6.32117 | 32915 ft | 486 kts | 218° |
| 2026-04-26 13:46 | 34.47810 | -6.36949 | 32914 ft | 485 kts | 217° |
| 2026-04-26 13:46 | 34.42358 | -6.41774 | 32917 ft | 485 kts | 217° |
| 2026-04-26 13:47 | 34.36944 | -6.46558 | 32913 ft | 485 kts | 217° |
| 2026-04-26 13:47 | 34.31462 | -6.51394 | 32913 ft | 484 kts | 217° |
| 2026-04-26 13:48 | 34.26066 | -6.56146 | 32924 ft | 481 kts | 217° |
| 2026-04-26 13:48 | 34.20649 | -6.60909 | 32914 ft | 481 kts | 217° |
| 2026-04-26 13:49 | 34.15231 | -6.65665 | 32913 ft | 481 kts | 216° |
| 2026-04-26 13:49 | 34.09819 | -6.70407 | 32891 ft | 483 kts | 216° |
| 2026-04-26 13:50 | 34.04385 | -6.75163 | 32849 ft | 482 kts | 216° |
| 2026-04-26 13:50 | 33.98872 | -6.79785 | 32752 ft | 482 kts | 214° |
| 2026-04-26 13:51 | 33.93298 | -6.84303 | 32691 ft | 482 kts | 214° |
| 2026-04-26 13:51 | 33.87723 | -6.88835 | 32622 ft | 485 kts | 214° |
| 2026-04-26 13:52 | 33.82156 | -6.93385 | 32604 ft | 485 kts | 214° |
| 2026-04-26 13:52 | 33.76586 | -6.97944 | 32587 ft | 484 kts | 214° |
| 2026-04-26 13:53 | 33.70996 | -7.02512 | 32588 ft | 487 kts | 213° |
| 2026-04-26 13:53 | 33.65417 | -7.07061 | 32589 ft | 486 kts | 213° |
| 2026-04-26 13:54 | 33.59769 | -7.11659 | 32603 ft | 487 kts | 213° |
| 2026-04-26 13:54 | 33.54197 | -7.16188 | 32629 ft | 488 kts | 213° |
| 2026-04-26 13:55 | 33.46688 | -7.22281 | 32651 ft | 488 kts | 213° |
| 2026-04-26 13:56 | 33.37342 | -7.29844 | 32754 ft | 487 kts | 213° |
| 2026-04-26 13:56 | 33.31719 | -7.34386 | 32810 ft | 487 kts | 212° |
| 2026-04-26 13:57 | 33.26061 | -7.38950 | 32879 ft | 487 kts | 212° |
| 2026-04-26 13:57 | 33.20477 | -7.43446 | 32915 ft | 488 kts | 212° |
| 2026-04-26 13:58 | 33.14851 | -7.47968 | 33005 ft | 488 kts | 213° |
| 2026-04-26 13:58 | 33.09215 | -7.52447 | 33077 ft | 486 kts | 210° |
| 2026-04-26 13:59 | 33.03402 | -7.56557 | 33158 ft | 485 kts | 208° |
| 2026-04-26 13:59 | 32.97535 | -7.60560 | 33225 ft | 485 kts | 208° |
| 2026-04-26 14:00 | 32.88812 | -7.66617 | 33385 ft | 481 kts | 209° |
| 2026-04-26 14:00 | 32.85923 | -7.68641 | 33431 ft | 482 kts | 209° |
| 2026-04-26 14:01 | 32.80154 | -7.72693 | 33499 ft | 482 kts | 209° |
| 2026-04-26 14:01 | 32.74381 | -7.76736 | 33549 ft | 481 kts | 209° |
| 2026-04-26 14:02 | 32.68601 | -7.80774 | 33600 ft | 481 kts | 209° |
| 2026-04-26 14:02 | 32.62829 | -7.84800 | 33625 ft | 484 kts | 210° |
| 2026-04-26 14:03 | 32.57008 | -7.88854 | 33606 ft | 487 kts | 210° |
| 2026-04-26 14:03 | 32.51180 | -7.92908 | 33629 ft | 486 kts | 210° |
| 2026-04-26 14:04 | 32.45346 | -7.96960 | 33675 ft | 485 kts | 210° |
| 2026-04-26 14:04 | 32.39516 | -8.01002 | 33687 ft | 484 kts | 209° |
| 2026-04-26 14:05 | 32.33701 | -8.05028 | 33726 ft | 481 kts | 210° |
| 2026-04-26 14:05 | 32.27928 | -8.09019 | 33778 ft | 482 kts | 210° |
| 2026-04-26 14:06 | 32.22155 | -8.13004 | 33757 ft | 481 kts | 210° |
| 2026-04-26 14:06 | 32.16414 | -8.16961 | 33723 ft | 480 kts | 210° |
| 2026-04-26 14:07 | 32.10631 | -8.20940 | 33636 ft | 481 kts | 209° |
| 2026-04-26 14:07 | 32.05760 | -8.24228 | 33629 ft | 481 kts | 210° |
| 2026-04-26 14:08 | 31.99942 | -8.28113 | 33777 ft | 481 kts | 210° |
| 2026-04-26 14:08 | 31.93188 | -8.32624 | 33879 ft | 481 kts | 210° |
| 2026-04-26 14:09 | 31.88316 | -8.35883 | 33878 ft | 480 kts | 210° |
| 2026-04-26 14:09 | 31.82522 | -8.39757 | 33879 ft | 479 kts | 210° |
| 2026-04-26 14:10 | 31.76741 | -8.43616 | 33875 ft | 477 kts | 211° |
| 2026-04-26 14:10 | 31.70977 | -8.47458 | 33878 ft | 476 kts | 211° |
| 2026-04-26 14:11 | 31.62377 | -8.53180 | 33878 ft | 476 kts | 211° |
| 2026-04-26 14:11 | 31.56619 | -8.57005 | 33889 ft | 476 kts | 211° |
| 2026-04-26 14:12 | 31.50859 | -8.60825 | 33872 ft | 476 kts | 211° |
| 2026-04-26 14:12 | 31.45113 | -8.64629 | 33900 ft | 474 kts | 211° |
| 2026-04-26 14:13 | 31.36512 | -8.70315 | 33898 ft | 473 kts | 211° |
| 2026-04-26 14:14 | 31.30783 | -8.74096 | 33912 ft | 473 kts | 211° |
| 2026-04-26 14:14 | 31.25051 | -8.77874 | 33914 ft | 473 kts | 211° |
| 2026-04-26 14:15 | 31.19318 | -8.81646 | 33910 ft | 472 kts | 211° |
| 2026-04-26 14:15 | 31.13606 | -8.85399 | 33912 ft | 471 kts | 211° |
| 2026-04-26 14:16 | 31.07903 | -8.89144 | 33905 ft | 470 kts | 211° |
| 2026-04-26 14:16 | 31.02204 | -8.92878 | 33908 ft | 470 kts | 211° |
| 2026-04-26 14:17 | 30.96497 | -8.96612 | 33883 ft | 470 kts | 211° |
| 2026-04-26 14:17 | 30.90798 | -9.00336 | 33882 ft | 468 kts | 212° |
| 2026-04-26 14:18 | 30.85122 | -9.04039 | 33868 ft | 467 kts | 212° |
| 2026-04-26 14:18 | 30.79460 | -9.07729 | 33865 ft | 466 kts | 212° |
| 2026-04-26 14:19 | 30.73804 | -9.11412 | 33848 ft | 466 kts | 212° |
| 2026-04-26 14:19 | 30.68151 | -9.15086 | 33849 ft | 465 kts | 212° |
| 2026-04-26 14:20 | 30.62504 | -9.18751 | 33835 ft | 464 kts | 212° |
| 2026-04-26 14:20 | 30.56876 | -9.22398 | 33846 ft | 463 kts | 212° |
| 2026-04-26 14:21 | 30.51259 | -9.26034 | 33850 ft | 462 kts | 212° |
| 2026-04-26 14:21 | 30.45647 | -9.29662 | 33843 ft | 462 kts | 212° |
| 2026-04-26 14:22 | 30.40069 | -9.33264 | 33846 ft | 462 kts | 212° |
| 2026-04-26 14:22 | 30.34454 | -9.36885 | 33854 ft | 462 kts | 212° |
| 2026-04-26 14:23 | 30.28567 | -9.39925 | 33854 ft | 465 kts | 205° |
| 2026-04-26 14:23 | 30.22526 | -9.42602 | 33862 ft | 466 kts | 204° |
| 2026-04-26 14:24 | 30.16453 | -9.45219 | 33868 ft | 466 kts | 204° |
| 2026-04-26 14:24 | 30.10385 | -9.47836 | 33865 ft | 466 kts | 204° |
| 2026-04-26 14:25 | 30.04316 | -9.50463 | 33874 ft | 464 kts | 204° |
| 2026-04-26 14:25 | 29.98276 | -9.53079 | 33873 ft | 463 kts | 204° |
| 2026-04-26 14:26 | 29.92254 | -9.55687 | 33882 ft | 462 kts | 204° |
| 2026-04-26 14:26 | 29.86237 | -9.58308 | 33876 ft | 462 kts | 204° |
| 2026-04-26 14:27 | 29.80229 | -9.60932 | 33880 ft | 462 kts | 204° |
| 2026-04-26 14:27 | 29.74222 | -9.63551 | 33879 ft | 462 kts | 204° |
| 2026-04-26 14:28 | 29.68218 | -9.66161 | 33880 ft | 461 kts | 204° |
| 2026-04-26 14:28 | 29.62267 | -9.68745 | 33891 ft | 461 kts | 204° |
| 2026-04-26 14:29 | 29.56217 | -9.71380 | 34064 ft | 462 kts | 204° |
| 2026-04-26 14:29 | 29.53209 | -9.72681 | 34171 ft | 462 kts | 204° |
| 2026-04-26 14:29 | 29.50203 | -9.73979 | 34244 ft | 462 kts | 204° |
| 2026-04-26 14:30 | 29.44184 | -9.76575 | 34359 ft | 461 kts | 204° |
| 2026-04-26 14:30 | 29.38178 | -9.79166 | 34460 ft | 461 kts | 204° |
| 2026-04-26 14:31 | 29.32172 | -9.81758 | 34534 ft | 461 kts | 204° |
| 2026-04-26 14:31 | 29.26165 | -9.84347 | 34577 ft | 462 kts | 204° |
| 2026-04-26 14:32 | 29.20150 | -9.86935 | 34594 ft | 462 kts | 204° |
| 2026-04-26 14:32 | 29.14140 | -9.89516 | 34592 ft | 460 kts | 204° |
| 2026-04-26 14:33 | 29.08149 | -9.92087 | 34658 ft | 460 kts | 204° |
| 2026-04-26 14:33 | 29.02155 | -9.94656 | 34689 ft | 460 kts | 204° |
| 2026-04-26 14:34 | 28.96161 | -9.97224 | 34722 ft | 460 kts | 204° |
| 2026-04-26 14:34 | 28.90163 | -9.99775 | 34843 ft | 459 kts | 204° |
| 2026-04-26 14:35 | 28.84240 | -10.02285 | 34879 ft | 449 kts | 204° |
| 2026-04-26 14:35 | 28.78444 | -10.04745 | 34869 ft | 448 kts | 204° |
| 2026-04-26 14:36 | 28.72556 | -10.07245 | 34859 ft | 448 kts | 204° |
| 2026-04-26 14:36 | 28.66711 | -10.09723 | 34860 ft | 448 kts | 204° |
| 2026-04-26 14:37 | 28.60872 | -10.12195 | 34855 ft | 448 kts | 204° |
| 2026-04-26 14:37 | 28.55064 | -10.14650 | 34860 ft | 448 kts | 204° |
| 2026-04-26 14:38 | 28.49224 | -10.17115 | 34850 ft | 448 kts | 204° |
| 2026-04-26 14:38 | 28.43387 | -10.19576 | 34850 ft | 448 kts | 204° |
| 2026-04-26 14:39 | 28.37547 | -10.22036 | 34853 ft | 447 kts | 204° |
| 2026-04-26 14:39 | 28.31744 | -10.24476 | 34852 ft | 442 kts | 204° |
| 2026-04-26 14:40 | 28.25950 | -10.26912 | 34836 ft | 447 kts | 204° |
| 2026-04-26 14:40 | 28.20081 | -10.29379 | 34841 ft | 453 kts | 204° |
| 2026-04-26 14:41 | 28.14136 | -10.31872 | 34838 ft | 458 kts | 204° |
| 2026-04-26 14:41 | 28.08165 | -10.34371 | 34840 ft | 457 kts | 204° |
| 2026-04-26 14:42 | 28.02202 | -10.36862 | 34844 ft | 456 kts | 204° |
| 2026-04-26 14:42 | 27.96246 | -10.39350 | 34829 ft | 456 kts | 204° |
| 2026-04-26 14:43 | 27.90289 | -10.41835 | 34838 ft | 456 kts | 204° |
| 2026-04-26 14:43 | 27.84334 | -10.44317 | 34851 ft | 456 kts | 204° |
| 2026-04-26 14:44 | 27.78380 | -10.46796 | 34852 ft | 456 kts | 204° |
| 2026-04-26 14:44 | 27.72425 | -10.49272 | 34851 ft | 456 kts | 204° |
| 2026-04-26 14:45 | 27.66467 | -10.51746 | 34842 ft | 456 kts | 204° |
| 2026-04-26 14:45 | 27.60537 | -10.54266 | 34849 ft | 455 kts | 204° |
| 2026-04-26 14:46 | 27.54625 | -10.56835 | 34844 ft | 455 kts | 204° |
| 2026-04-26 14:46 | 27.48711 | -10.59397 | 34852 ft | 455 kts | 204° |
| 2026-04-26 14:47 | 27.42798 | -10.61943 | 34852 ft | 455 kts | 204° |
| 2026-04-26 14:47 | 27.36918 | -10.64467 | 34848 ft | 455 kts | 204° |
| 2026-04-26 14:48 | 27.31000 | -10.67005 | 34847 ft | 455 kts | 204° |
| 2026-04-26 14:48 | 27.25084 | -10.69538 | 34845 ft | 455 kts | 204° |
| 2026-04-26 14:49 | 27.19162 | -10.72073 | 34846 ft | 455 kts | 204° |
| 2026-04-26 14:49 | 27.13240 | -10.74604 | 34851 ft | 455 kts | 204° |
| 2026-04-26 14:50 | 27.07319 | -10.77132 | 34851 ft | 455 kts | 204° |
| 2026-04-26 14:50 | 27.01400 | -10.79656 | 34850 ft | 455 kts | 204° |
| 2026-04-26 14:51 | 26.95482 | -10.82177 | 34850 ft | 455 kts | 204° |
| 2026-04-26 14:51 | 26.89565 | -10.84694 | 34850 ft | 455 kts | 204° |
| 2026-04-26 14:52 | 26.83648 | -10.87209 | 34856 ft | 455 kts | 204° |
| 2026-04-26 14:52 | 26.77735 | -10.89720 | 34857 ft | 454 kts | 204° |
| 2026-04-26 14:53 | 26.71822 | -10.92227 | 34856 ft | 454 kts | 204° |
| 2026-04-26 14:53 | 26.65918 | -10.94728 | 34867 ft | 454 kts | 204° |
| 2026-04-26 14:54 | 26.60014 | -10.97226 | 34863 ft | 454 kts | 204° |
| 2026-04-26 14:54 | 26.55101 | -10.99303 | 34868 ft | 454 kts | 204° |
| 2026-04-26 14:55 | 26.49196 | -11.01796 | 34873 ft | 454 kts | 204° |
| 2026-04-26 14:55 | 26.42331 | -11.04691 | 34870 ft | 454 kts | 204° |
| 2026-04-26 14:56 | 26.37386 | -11.06775 | 34879 ft | 453 kts | 204° |
| 2026-04-26 14:56 | 26.31492 | -11.09256 | 34886 ft | 453 kts | 204° |
| 2026-04-26 14:57 | 26.25591 | -11.11737 | 34882 ft | 453 kts | 204° |
| 2026-04-26 14:57 | 26.19694 | -11.14213 | 34884 ft | 453 kts | 204° |
| 2026-04-26 14:58 | 26.13798 | -11.16687 | 34894 ft | 453 kts | 204° |
| 2026-04-26 14:58 | 26.07897 | -11.19160 | 34889 ft | 453 kts | 204° |
| 2026-04-26 14:59 | 26.02006 | -11.21625 | 34895 ft | 452 kts | 204° |
| 2026-04-26 14:59 | 25.96157 | -11.24071 | 34895 ft | 452 kts | 204° |
| 2026-04-26 15:00 | 25.90266 | -11.26532 | 34895 ft | 452 kts | 204° |
| 2026-04-26 15:00 | 25.84382 | -11.28987 | 34897 ft | 452 kts | 204° |
| 2026-04-26 15:01 | 25.78495 | -11.31441 | 34901 ft | 452 kts | 204° |
| 2026-04-26 15:01 | 25.72611 | -11.33891 | 34901 ft | 452 kts | 204° |
| 2026-04-26 15:02 | 25.66723 | -11.36340 | 34900 ft | 452 kts | 204° |
| 2026-04-26 15:02 | 25.60839 | -11.38785 | 34899 ft | 452 kts | 204° |
| 2026-04-26 15:03 | 25.54951 | -11.41229 | 34901 ft | 452 kts | 204° |
| 2026-04-26 15:03 | 25.49067 | -11.43669 | 34888 ft | 451 kts | 204° |
| 2026-04-26 15:04 | 25.43187 | -11.46104 | 34895 ft | 451 kts | 204° |
| 2026-04-26 15:04 | 25.37316 | -11.48533 | 34901 ft | 450 kts | 204° |
| 2026-04-26 15:05 | 25.31446 | -11.50959 | 34895 ft | 450 kts | 204° |
| 2026-04-26 15:05 | 25.25576 | -11.53383 | 34893 ft | 450 kts | 204° |
| 2026-04-26 15:06 | 25.19700 | -11.55798 | 34892 ft | 451 kts | 204° |
| 2026-04-26 15:06 | 25.13770 | -11.58056 | 34892 ft | 451 kts | 203° |
| 2026-04-26 15:07 | 25.04864 | -11.61357 | 34895 ft | 450 kts | 203° |
| 2026-04-26 15:07 | 24.98936 | -11.63582 | 34894 ft | 450 kts | 203° |
| 2026-04-26 15:08 | 24.93010 | -11.65815 | 34894 ft | 450 kts | 203° |
| 2026-04-26 15:08 | 24.87087 | -11.68046 | 34895 ft | 450 kts | 203° |
| 2026-04-26 15:09 | 24.81162 | -11.70275 | 34892 ft | 449 kts | 203° |
| 2026-04-26 15:09 | 24.75247 | -11.72497 | 34892 ft | 449 kts | 203° |
| 2026-04-26 15:10 | 24.70334 | -11.74341 | 34892 ft | 449 kts | 203° |
| 2026-04-26 15:10 | 24.63420 | -11.76934 | 34895 ft | 449 kts | 203° |
| 2026-04-26 15:11 | 24.57507 | -11.79149 | 34895 ft | 449 kts | 203° |
| 2026-04-26 15:11 | 24.51591 | -11.81363 | 34891 ft | 449 kts | 204° |
| 2026-04-26 15:12 | 24.45723 | -11.83556 | 34895 ft | 448 kts | 204° |
| 2026-04-26 15:12 | 24.39819 | -11.85761 | 34892 ft | 448 kts | 204° |
| 2026-04-26 15:13 | 24.33918 | -11.87963 | 34892 ft | 448 kts | 204° |
| 2026-04-26 15:13 | 24.28016 | -11.90163 | 34896 ft | 448 kts | 204° |
| 2026-04-26 15:14 | 24.22112 | -11.92362 | 34895 ft | 448 kts | 204° |
| 2026-04-26 15:14 | 24.16207 | -11.94558 | 34894 ft | 448 kts | 204° |
| 2026-04-26 15:15 | 24.10304 | -11.96752 | 34895 ft | 448 kts | 203° |
| 2026-04-26 15:15 | 24.04400 | -11.98944 | 34894 ft | 448 kts | 203° |
| 2026-04-26 15:16 | 23.98494 | -12.01135 | 34892 ft | 448 kts | 203° |
| 2026-04-26 15:16 | 23.92590 | -12.03322 | 34892 ft | 448 kts | 203° |
| 2026-04-26 15:17 | 23.87682 | -12.05139 | 34896 ft | 448 kts | 204° |
| 2026-04-26 15:17 | 23.80786 | -12.07690 | 34896 ft | 448 kts | 204° |
| 2026-04-26 15:18 | 23.74883 | -12.09872 | 34898 ft | 448 kts | 204° |
| 2026-04-26 15:18 | 23.68980 | -12.12051 | 34897 ft | 448 kts | 204° |
| 2026-04-26 15:19 | 23.63076 | -12.14228 | 34897 ft | 448 kts | 204° |
| 2026-04-26 15:19 | 23.57176 | -12.16401 | 34881 ft | 447 kts | 204° |
| 2026-04-26 15:20 | 23.51294 | -12.18565 | 34894 ft | 445 kts | 204° |
| 2026-04-26 15:20 | 23.45435 | -12.20720 | 34895 ft | 444 kts | 204° |
| 2026-04-26 15:21 | 23.39578 | -12.22877 | 34895 ft | 444 kts | 204° |
| 2026-04-26 15:21 | 23.33717 | -12.25026 | 34894 ft | 444 kts | 204° |
| 2026-04-26 15:22 | 23.27898 | -12.27158 | 34895 ft | 444 kts | 204° |
| 2026-04-26 15:22 | 23.22043 | -12.29301 | 34893 ft | 443 kts | 205° |
| 2026-04-26 15:23 | 23.16209 | -12.31435 | 34892 ft | 442 kts | 205° |
| 2026-04-26 15:23 | 23.10389 | -12.33565 | 34898 ft | 442 kts | 205° |
| 2026-04-26 15:24 | 23.04559 | -12.35695 | 34898 ft | 442 kts | 205° |
| 2026-04-26 15:24 | 22.98729 | -12.37824 | 34892 ft | 442 kts | 205° |
| 2026-04-26 15:25 | 22.93884 | -12.39591 | 34859 ft | 442 kts | 205° |
| 2026-04-26 15:25 | 22.87085 | -12.42067 | 34893 ft | 441 kts | 205° |
| 2026-04-26 15:26 | 22.81270 | -12.44184 | 34887 ft | 441 kts | 205° |
| 2026-04-26 15:26 | 22.75449 | -12.46302 | 34888 ft | 441 kts | 205° |
| 2026-04-26 15:27 | 22.69508 | -12.48108 | 34882 ft | 445 kts | 200° |
| 2026-04-26 15:27 | 22.63464 | -12.49630 | 34886 ft | 446 kts | 200° |
| 2026-04-26 15:28 | 22.57422 | -12.51183 | 34879 ft | 446 kts | 201° |
| 2026-04-26 15:28 | 22.51417 | -12.52788 | 34881 ft | 444 kts | 201° |
| 2026-04-26 15:29 | 22.45422 | -12.54417 | 34878 ft | 444 kts | 201° |
| 2026-04-26 15:30 | 22.33430 | -12.57672 | 34876 ft | 444 kts | 201° |
| 2026-04-26 15:30 | 22.27432 | -12.59295 | 34852 ft | 444 kts | 202° |
| 2026-04-26 15:31 | 22.18479 | -12.61714 | 34873 ft | 444 kts | 202° |
| 2026-04-26 15:32 | 22.11471 | -12.63605 | 34869 ft | 444 kts | 202° |
| 2026-04-26 15:32 | 22.03491 | -12.65756 | 34871 ft | 444 kts | 202° |
| 2026-04-26 15:33 | 21.97498 | -12.67370 | 34869 ft | 444 kts | 202° |
| 2026-04-26 15:33 | 21.91496 | -12.68985 | 34866 ft | 445 kts | 202° |
| 2026-04-26 15:34 | 21.85494 | -12.70598 | 34865 ft | 445 kts | 202° |
| 2026-04-26 15:34 | 21.79489 | -12.72212 | 34863 ft | 445 kts | 202° |
| 2026-04-26 15:35 | 21.73482 | -12.73824 | 34867 ft | 445 kts | 202° |
| 2026-04-26 15:35 | 21.67486 | -12.75432 | 34865 ft | 445 kts | 202° |
| 2026-04-26 15:36 | 21.61477 | -12.77041 | 34858 ft | 445 kts | 202° |
| 2026-04-26 15:36 | 21.55458 | -12.78653 | 34858 ft | 447 kts | 202° |
| 2026-04-26 15:37 | 21.49425 | -12.80267 | 34858 ft | 447 kts | 202° |
| 2026-04-26 15:37 | 21.43386 | -12.81879 | 34855 ft | 447 kts | 202° |
| 2026-04-26 15:38 | 21.37348 | -12.83491 | 34857 ft | 447 kts | 202° |
| 2026-04-26 15:38 | 21.31307 | -12.85103 | 34862 ft | 447 kts | 202° |
| 2026-04-26 15:39 | 21.25267 | -12.86714 | 34854 ft | 448 kts | 203° |
| 2026-04-26 15:39 | 21.21255 | -12.87784 | 34855 ft | 449 kts | 202° |
| 2026-04-26 15:40 | 21.13182 | -12.89931 | 34851 ft | 449 kts | 202° |
| 2026-04-26 15:40 | 21.07119 | -12.91543 | 34857 ft | 449 kts | 202° |
| 2026-04-26 15:41 | 21.01056 | -12.93153 | 34850 ft | 449 kts | 202° |
| 2026-04-26 15:41 | 20.94997 | -12.94762 | 34850 ft | 449 kts | 202° |
| 2026-04-26 15:42 | 20.88933 | -12.96370 | 34845 ft | 449 kts | 202° |
| 2026-04-26 15:42 | 20.83849 | -12.97718 | 34845 ft | 449 kts | 202° |
| 2026-04-26 15:43 | 20.77785 | -12.99324 | 34864 ft | 449 kts | 202° |
| 2026-04-26 15:44 | 20.68731 | -13.01719 | 34883 ft | 449 kts | 202° |
| 2026-04-26 15:44 | 20.59633 | -13.04123 | 34910 ft | 450 kts | 203° |
| 2026-04-26 15:45 | 20.50650 | -13.06875 | 34911 ft | 439 kts | 212° |
| 2026-04-26 15:46 | 20.45507 | -13.10158 | 34910 ft | 428 kts | 222° |
| 2026-04-26 15:46 | 20.43088 | -13.12001 | 34910 ft | 427 kts | 223° |
| 2026-04-26 15:46 | 20.39120 | -13.15138 | 34823 ft | 427 kts | 223° |
| 2026-04-26 15:47 | 20.31172 | -13.21451 | 34814 ft | 427 kts | 223° |
| 2026-04-26 15:48 | 20.26380 | -13.25214 | 34819 ft | 429 kts | 223° |
| 2026-04-26 15:48 | 20.21570 | -13.28984 | 34818 ft | 429 kts | 223° |
| 2026-04-26 15:49 | 20.16760 | -13.32751 | 34816 ft | 429 kts | 223° |
| 2026-04-26 15:49 | 20.11950 | -13.36515 | 34815 ft | 429 kts | 223° |
| 2026-04-26 15:50 | 20.07138 | -13.40278 | 34809 ft | 429 kts | 223° |
| 2026-04-26 15:50 | 20.02324 | -13.44036 | 34813 ft | 429 kts | 223° |
| 2026-04-26 15:51 | 19.97514 | -13.47793 | 34815 ft | 429 kts | 223° |
| 2026-04-26 15:51 | 19.92702 | -13.51548 | 34806 ft | 430 kts | 223° |
| 2026-04-26 15:52 | 19.87866 | -13.55320 | 34810 ft | 432 kts | 223° |
| 2026-04-26 15:52 | 19.83018 | -13.59095 | 34810 ft | 432 kts | 223° |
| 2026-04-26 15:53 | 19.78201 | -13.62842 | 34804 ft | 432 kts | 223° |
| 2026-04-26 15:53 | 19.73354 | -13.66611 | 34807 ft | 432 kts | 223° |
| 2026-04-26 15:54 | 19.68505 | -13.70379 | 34806 ft | 432 kts | 223° |
| 2026-04-26 15:54 | 19.63654 | -13.74146 | 34801 ft | 432 kts | 223° |
| 2026-04-26 15:55 | 19.58802 | -13.77910 | 34783 ft | 432 kts | 223° |
| 2026-04-26 15:55 | 19.53938 | -13.81682 | 34800 ft | 434 kts | 223° |
| 2026-04-26 15:56 | 19.49066 | -13.85457 | 34802 ft | 434 kts | 223° |
| 2026-04-26 15:56 | 19.44181 | -13.89238 | 34802 ft | 435 kts | 223° |
| 2026-04-26 15:57 | 19.39283 | -13.93027 | 34800 ft | 436 kts | 223° |
| 2026-04-26 15:57 | 19.34385 | -13.96812 | 34801 ft | 436 kts | 223° |
| 2026-04-26 15:58 | 19.29482 | -14.00598 | 34797 ft | 436 kts | 223° |
| 2026-04-26 15:58 | 19.24582 | -14.04380 | 34757 ft | 436 kts | 223° |
| 2026-04-26 15:59 | 19.19677 | -14.08163 | 34801 ft | 437 kts | 223° |
| 2026-04-26 15:59 | 19.14763 | -14.11949 | 34786 ft | 437 kts | 223° |
| 2026-04-26 16:00 | 19.09881 | -14.15708 | 34784 ft | 437 kts | 223° |
| 2026-04-26 16:00 | 19.04967 | -14.19489 | 34801 ft | 437 kts | 223° |
| 2026-04-26 16:01 | 19.00056 | -14.23264 | 34782 ft | 437 kts | 223° |
| 2026-04-26 16:01 | 18.95129 | -14.27052 | 34781 ft | 439 kts | 223° |
| 2026-04-26 16:02 | 18.90191 | -14.30843 | 34799 ft | 439 kts | 223° |
| 2026-04-26 16:02 | 18.85248 | -14.34634 | 34788 ft | 440 kts | 223° |
| 2026-04-26 16:03 | 18.80295 | -14.38431 | 34787 ft | 440 kts | 223° |
| 2026-04-26 16:03 | 18.75338 | -14.42227 | 34787 ft | 440 kts | 223° |
| 2026-04-26 16:04 | 18.70385 | -14.46018 | 34787 ft | 440 kts | 223° |
| 2026-04-26 16:04 | 18.65430 | -14.49808 | 34787 ft | 440 kts | 223° |
| 2026-04-26 16:05 | 18.60504 | -14.53573 | 34790 ft | 440 kts | 223° |
| 2026-04-26 16:05 | 18.55550 | -14.57356 | 34790 ft | 440 kts | 223° |
| 2026-04-26 16:06 | 18.50549 | -14.61175 | 34792 ft | 442 kts | 223° |
| 2026-04-26 16:06 | 18.45587 | -14.64960 | 34793 ft | 444 kts | 223° |
| 2026-04-26 16:07 | 18.40590 | -14.68767 | 34792 ft | 443 kts | 223° |
| 2026-04-26 16:07 | 18.35593 | -14.72570 | 34792 ft | 443 kts | 222° |
| 2026-04-26 16:08 | 18.30592 | -14.76376 | 34794 ft | 443 kts | 222° |
| 2026-04-26 16:08 | 18.25594 | -14.80176 | 34800 ft | 443 kts | 223° |
| 2026-04-26 16:09 | 18.20594 | -14.83976 | 34798 ft | 443 kts | 222° |
| 2026-04-26 16:09 | 18.15586 | -14.87779 | 34802 ft | 445 kts | 222° |
| 2026-04-26 16:10 | 18.10553 | -14.91600 | 34797 ft | 447 kts | 222° |
| 2026-04-26 16:10 | 18.05508 | -14.95423 | 34799 ft | 447 kts | 222° |
| 2026-04-26 16:11 | 18.00455 | -14.99251 | 34803 ft | 448 kts | 222° |
| 2026-04-26 16:11 | 17.95397 | -15.03080 | 34801 ft | 448 kts | 222° |
| 2026-04-26 16:12 | 17.90339 | -15.06907 | 34801 ft | 448 kts | 222° |
| 2026-04-26 16:12 | 17.82754 | -15.12640 | 34783 ft | 448 kts | 222° |
| 2026-04-26 16:13 | 17.77686 | -15.16472 | 34803 ft | 450 kts | 222° |
| 2026-04-26 16:13 | 17.72602 | -15.20315 | 34803 ft | 450 kts | 222° |
| 2026-04-26 16:14 | 17.67552 | -15.24128 | 34806 ft | 450 kts | 222° |
| 2026-04-26 16:15 | 17.59928 | -15.29886 | 34808 ft | 450 kts | 222° |
| 2026-04-26 16:15 | 17.54846 | -15.33721 | 34813 ft | 450 kts | 222° |
| 2026-04-26 16:16 | 17.47221 | -15.39470 | 34814 ft | 450 kts | 222° |
| 2026-04-26 16:16 | 17.42133 | -15.43302 | 34823 ft | 450 kts | 222° |
| 2026-04-26 16:17 | 17.37047 | -15.47132 | 34820 ft | 450 kts | 222° |
| 2026-04-26 16:17 | 17.31959 | -15.50960 | 34829 ft | 450 kts | 222° |
| 2026-04-26 16:18 | 17.24326 | -15.56698 | 34830 ft | 450 kts | 222° |
| 2026-04-26 16:19 | 17.16689 | -15.62433 | 34830 ft | 450 kts | 222° |
| 2026-04-26 16:20 | 17.09047 | -15.68170 | 34841 ft | 453 kts | 222° |
| 2026-04-26 16:20 | 17.01351 | -15.73940 | 34842 ft | 454 kts | 221° |
| 2026-04-26 16:21 | 16.96211 | -15.77787 | 34843 ft | 454 kts | 221° |
| 2026-04-26 16:21 | 16.91076 | -15.81628 | 34856 ft | 454 kts | 221° |
| 2026-04-26 16:22 | 16.85975 | -15.85442 | 34856 ft | 454 kts | 221° |
| 2026-04-26 16:22 | 16.80838 | -15.89282 | 34853 ft | 454 kts | 221° |
| 2026-04-26 16:23 | 16.75703 | -15.93117 | 34850 ft | 454 kts | 221° |
| 2026-04-26 16:23 | 16.70543 | -15.96970 | 34865 ft | 457 kts | 221° |
| 2026-04-26 16:24 | 16.65371 | -16.00827 | 34860 ft | 457 kts | 221° |
| 2026-04-26 16:24 | 16.60191 | -16.04688 | 34862 ft | 458 kts | 221° |
| 2026-04-26 16:25 | 16.55003 | -16.08551 | 34875 ft | 458 kts | 221° |
| 2026-04-26 16:25 | 16.49817 | -16.12414 | 34876 ft | 458 kts | 221° |
| 2026-04-26 16:26 | 16.45506 | -16.15621 | 34876 ft | 458 kts | 221° |
| 2026-04-26 16:26 | 16.39439 | -16.20124 | 34869 ft | 459 kts | 221° |
| 2026-04-26 16:27 | 16.34224 | -16.23995 | 34889 ft | 462 kts | 221° |
| 2026-04-26 16:27 | 16.28988 | -16.27878 | 34889 ft | 462 kts | 221° |
| 2026-04-26 16:28 | 16.23751 | -16.31759 | 34889 ft | 462 kts | 221° |
| 2026-04-26 16:28 | 16.18517 | -16.35636 | 34891 ft | 462 kts | 221° |
| 2026-04-26 16:29 | 16.13277 | -16.39517 | 34897 ft | 463 kts | 221° |
| 2026-04-26 16:29 | 16.08026 | -16.43402 | 34897 ft | 463 kts | 221° |
| 2026-04-26 16:30 | 16.02818 | -16.47270 | 34897 ft | 463 kts | 221° |
| 2026-04-26 16:30 | 15.97668 | -16.51311 | 34903 ft | 464 kts | 223° |
| 2026-04-26 16:31 | 15.92543 | -16.55396 | 34900 ft | 465 kts | 223° |
| 2026-04-26 16:31 | 15.87398 | -16.59465 | 34900 ft | 465 kts | 222° |
| 2026-04-26 16:32 | 15.83112 | -16.62833 | 34903 ft | 465 kts | 222° |
| 2026-04-26 16:32 | 15.77952 | -16.66877 | 34903 ft | 465 kts | 222° |
| 2026-04-26 16:33 | 15.72789 | -16.70921 | 34905 ft | 465 kts | 222° |
| 2026-04-26 16:33 | 15.67615 | -16.74974 | 34910 ft | 467 kts | 222° |
| 2026-04-26 16:34 | 15.62417 | -16.79043 | 34902 ft | 469 kts | 222° |
| 2026-04-26 16:34 | 15.57204 | -16.83119 | 34908 ft | 469 kts | 222° |
| 2026-04-26 16:35 | 15.51988 | -16.87195 | 34913 ft | 469 kts | 222° |
| 2026-04-26 16:35 | 15.46775 | -16.91267 | 34904 ft | 469 kts | 222° |
| 2026-04-26 16:36 | 15.41559 | -16.95339 | 34915 ft | 469 kts | 222° |
| 2026-04-26 16:36 | 15.36344 | -16.99407 | 34906 ft | 469 kts | 222° |
| 2026-04-26 16:37 | 15.31131 | -17.03472 | 34900 ft | 470 kts | 221° |
| 2026-04-26 16:37 | 15.25889 | -17.07558 | 34908 ft | 473 kts | 221° |
| 2026-04-26 16:38 | 15.20627 | -17.11655 | 34906 ft | 474 kts | 221° |
| 2026-04-26 16:38 | 15.15358 | -17.15753 | 34913 ft | 473 kts | 221° |
| 2026-04-26 16:39 | 15.10091 | -17.19849 | 34916 ft | 473 kts | 221° |
| 2026-04-26 16:39 | 15.04827 | -17.23939 | 34913 ft | 473 kts | 221° |
| 2026-04-26 16:40 | 14.99556 | -17.28033 | 34913 ft | 473 kts | 221° |
| 2026-04-26 16:40 | 14.94290 | -17.32121 | 34907 ft | 474 kts | 221° |
| 2026-04-26 16:41 | 14.89038 | -17.36195 | 34916 ft | 476 kts | 221° |
| 2026-04-26 16:41 | 14.83741 | -17.40301 | 34917 ft | 476 kts | 221° |
| 2026-04-26 16:42 | 14.78437 | -17.44410 | 34908 ft | 477 kts | 221° |
| 2026-04-26 16:42 | 14.73121 | -17.48516 | 34909 ft | 478 kts | 220° |
| 2026-04-26 16:43 | 14.67588 | -17.52354 | 34913 ft | 480 kts | 217° |
| 2026-04-26 16:43 | 14.61960 | -17.56054 | 34910 ft | 480 kts | 217° |
| 2026-04-26 16:44 | 14.56350 | -17.59791 | 34913 ft | 480 kts | 217° |
| 2026-04-26 16:44 | 14.50754 | -17.63571 | 34915 ft | 481 kts | 217° |
| 2026-04-26 16:45 | 14.45166 | -17.67362 | 34916 ft | 481 kts | 217° |
| 2026-04-26 16:45 | 14.39580 | -17.71150 | 34916 ft | 481 kts | 217° |
| 2026-04-26 16:46 | 14.33991 | -17.74935 | 34916 ft | 481 kts | 217° |
| 2026-04-26 16:46 | 14.28392 | -17.78723 | 34920 ft | 482 kts | 217° |
| 2026-04-26 16:47 | 14.22788 | -17.82512 | 34916 ft | 482 kts | 217° |
| 2026-04-26 16:47 | 14.17164 | -17.86313 | 34922 ft | 484 kts | 217° |
| 2026-04-26 16:48 | 14.11526 | -17.90120 | 34924 ft | 485 kts | 217° |
| 2026-04-26 16:48 | 14.05885 | -17.93927 | 34925 ft | 485 kts | 217° |
| 2026-04-26 16:49 | 14.00245 | -17.97730 | 34927 ft | 484 kts | 217° |
| 2026-04-26 16:49 | 13.94640 | -18.01513 | 35031 ft | 486 kts | 217° |
| 2026-04-26 16:50 | 13.88986 | -18.05322 | 35086 ft | 486 kts | 216° |
| 2026-04-26 16:50 | 13.83328 | -18.09126 | 35088 ft | 486 kts | 216° |
| 2026-04-26 16:51 | 13.77661 | -18.12937 | 35091 ft | 487 kts | 216° |
| 2026-04-26 16:51 | 13.71993 | -18.16746 | 35094 ft | 487 kts | 216° |
| 2026-04-26 16:52 | 13.67246 | -18.19936 | 35094 ft | 487 kts | 216° |
| 2026-04-26 16:52 | 13.60655 | -18.24362 | 35100 ft | 487 kts | 216° |
| 2026-04-26 16:53 | 13.54984 | -18.28168 | 35094 ft | 487 kts | 216° |
| 2026-04-26 16:53 | 13.49306 | -18.31977 | 35094 ft | 488 kts | 216° |
| 2026-04-26 16:54 | 13.43619 | -18.35789 | 35097 ft | 488 kts | 216° |
| 2026-04-26 16:54 | 13.37931 | -18.39599 | 35099 ft | 488 kts | 216° |
| 2026-04-26 16:55 | 13.32239 | -18.43410 | 35096 ft | 488 kts | 216° |
| 2026-04-26 16:55 | 13.26547 | -18.47220 | 35093 ft | 489 kts | 216° |
| 2026-04-26 16:56 | 13.17998 | -18.52937 | 35099 ft | 489 kts | 216° |
| 2026-04-26 16:57 | 13.12292 | -18.56751 | 35105 ft | 490 kts | 216° |
| 2026-04-26 16:57 | 13.03716 | -18.62478 | 35106 ft | 490 kts | 216° |
| 2026-04-26 16:58 | 12.98966 | -18.65648 | 35107 ft | 490 kts | 216° |
| 2026-04-26 16:59 | 12.89424 | -18.72012 | 35109 ft | 490 kts | 216° |
| 2026-04-26 17:00 | 12.77984 | -18.79634 | 35105 ft | 491 kts | 216° |
| 2026-04-26 17:00 | 12.69383 | -18.85359 | 35108 ft | 491 kts | 216° |
| 2026-04-26 17:01 | 12.63687 | -18.89148 | 35108 ft | 491 kts | 216° |
| 2026-04-26 17:01 | 12.57949 | -18.92962 | 35109 ft | 491 kts | 216° |
| 2026-04-26 17:02 | 12.52215 | -18.96772 | 35107 ft | 492 kts | 216° |
| 2026-04-26 17:02 | 12.46442 | -19.00606 | 35108 ft | 492 kts | 216° |
| 2026-04-26 17:03 | 12.40736 | -19.04394 | 35105 ft | 493 kts | 215° |
| 2026-04-26 17:03 | 12.34984 | -19.08209 | 35105 ft | 493 kts | 215° |
| 2026-04-26 17:04 | 12.29234 | -19.12022 | 35105 ft | 493 kts | 215° |
| 2026-04-26 17:04 | 12.23480 | -19.15835 | 35106 ft | 493 kts | 215° |
| 2026-04-26 17:05 | 12.17716 | -19.19652 | 35101 ft | 493 kts | 215° |
| 2026-04-26 17:05 | 12.11960 | -19.23463 | 35102 ft | 493 kts | 215° |
| 2026-04-26 17:06 | 12.06200 | -19.27274 | 35098 ft | 494 kts | 215° |
| 2026-04-26 17:06 | 12.00432 | -19.31088 | 35098 ft | 494 kts | 215° |
| 2026-04-26 17:07 | 11.94667 | -19.34899 | 35096 ft | 494 kts | 215° |
| 2026-04-26 17:07 | 11.88899 | -19.38709 | 35096 ft | 494 kts | 215° |
| 2026-04-26 17:08 | 11.83130 | -19.42518 | 35097 ft | 494 kts | 215° |
| 2026-04-26 17:08 | 11.77361 | -19.46325 | 35096 ft | 494 kts | 215° |
| 2026-04-26 17:09 | 11.72563 | -19.49490 | 35095 ft | 494 kts | 215° |
| 2026-04-26 17:09 | 11.65803 | -19.53947 | 35092 ft | 495 kts | 215° |
| 2026-04-26 17:10 | 11.60022 | -19.57756 | 35094 ft | 495 kts | 215° |
| 2026-04-26 17:10 | 11.54241 | -19.61563 | 35093 ft | 495 kts | 215° |
| 2026-04-26 17:11 | 11.48478 | -19.65393 | 35092 ft | 494 kts | 218° |
| 2026-04-26 17:11 | 11.43437 | -19.70095 | 35098 ft | 491 kts | 228° |
| 2026-04-26 17:12 | 11.36522 | -19.77785 | 35095 ft | 490 kts | 230° |
| 2026-04-26 17:13 | 11.29687 | -19.85513 | 35096 ft | 492 kts | 229° |
| 2026-04-26 17:14 | 11.22784 | -19.93257 | 35094 ft | 492 kts | 229° |
| 2026-04-26 17:14 | 11.15876 | -20.00988 | 35094 ft | 492 kts | 229° |
| 2026-04-26 17:15 | 11.08961 | -20.08723 | 35100 ft | 492 kts | 229° |
| 2026-04-26 17:16 | 11.04353 | -20.13875 | 35095 ft | 492 kts | 229° |
| 2026-04-26 17:16 | 10.99739 | -20.19031 | 35096 ft | 493 kts | 229° |
| 2026-04-26 17:17 | 10.95120 | -20.24190 | 35095 ft | 493 kts | 229° |
| 2026-04-26 17:17 | 10.90496 | -20.29351 | 35111 ft | 493 kts | 229° |
| 2026-04-26 17:18 | 10.85872 | -20.34510 | 35133 ft | 493 kts | 229° |
| 2026-04-26 17:18 | 10.81256 | -20.39656 | 35328 ft | 490 kts | 229° |
| 2026-04-26 17:18 | 10.79745 | -20.41341 | 35627 ft | 485 kts | 229° |
| 2026-04-26 17:19 | 10.74543 | -20.47136 | 35943 ft | 472 kts | 229° |
| 2026-04-26 17:19 | 10.70125 | -20.52058 | 35942 ft | 470 kts | 229° |
| 2026-04-26 17:20 | 10.67175 | -20.55344 | 35940 ft | 471 kts | 229° |
| 2026-04-26 17:20 | 10.62009 | -20.61094 | 35944 ft | 471 kts | 229° |
| 2026-04-26 17:21 | 10.57591 | -20.66010 | 35940 ft | 471 kts | 229° |
| 2026-04-26 17:21 | 10.53165 | -20.70930 | 35942 ft | 472 kts | 229° |
| 2026-04-26 17:22 | 10.48740 | -20.75847 | 35943 ft | 471 kts | 228° |
| 2026-04-26 17:22 | 10.44313 | -20.80766 | 35943 ft | 472 kts | 229° |
| 2026-04-26 17:23 | 10.39846 | -20.85726 | 35939 ft | 479 kts | 229° |
| 2026-04-26 17:23 | 10.35315 | -20.90756 | 35946 ft | 485 kts | 229° |
| 2026-04-26 17:24 | 10.30764 | -20.95804 | 35944 ft | 489 kts | 228° |
| 2026-04-26 17:24 | 10.26178 | -21.00888 | 35944 ft | 488 kts | 228° |
| 2026-04-26 17:25 | 10.21593 | -21.05969 | 35940 ft | 488 kts | 228° |
| 2026-04-26 17:25 | 10.17010 | -21.11045 | 35942 ft | 487 kts | 229° |
| 2026-04-26 17:26 | 10.12428 | -21.16120 | 35945 ft | 488 kts | 229° |
| 2026-04-26 17:26 | 10.07843 | -21.21194 | 35941 ft | 488 kts | 229° |
| 2026-04-26 17:27 | 10.03252 | -21.26274 | 35944 ft | 488 kts | 228° |
| 2026-04-26 17:27 | 9.98664 | -21.31347 | 35945 ft | 488 kts | 228° |
| 2026-04-26 17:28 | 9.94071 | -21.36424 | 35940 ft | 488 kts | 228° |
| 2026-04-26 17:28 | 9.89479 | -21.41497 | 35942 ft | 488 kts | 229° |
| 2026-04-26 17:29 | 9.85663 | -21.45711 | 35946 ft | 488 kts | 229° |
| 2026-04-26 17:29 | 9.80284 | -21.51649 | 35946 ft | 490 kts | 228° |
| 2026-04-26 17:30 | 9.75675 | -21.56734 | 35947 ft | 490 kts | 228° |
| 2026-04-26 17:30 | 9.71061 | -21.61822 | 35946 ft | 490 kts | 228° |
| 2026-04-26 17:31 | 9.66447 | -21.66908 | 35945 ft | 490 kts | 228° |
| 2026-04-26 17:31 | 9.61833 | -21.71992 | 35941 ft | 490 kts | 228° |
| 2026-04-26 17:32 | 9.57215 | -21.77078 | 35944 ft | 490 kts | 228° |
| 2026-04-26 17:32 | 9.52597 | -21.82162 | 35944 ft | 491 kts | 228° |
| 2026-04-26 17:33 | 9.47973 | -21.87251 | 35940 ft | 491 kts | 227° |
| 2026-04-26 17:34 | 9.41043 | -21.94873 | 35945 ft | 493 kts | 227° |
| 2026-04-26 17:34 | 9.36393 | -21.99984 | 35942 ft | 494 kts | 227° |
| 2026-04-26 17:35 | 9.31738 | -22.05099 | 35943 ft | 494 kts | 227° |
| 2026-04-26 17:35 | 9.27088 | -22.10207 | 35945 ft | 493 kts | 227° |
| 2026-04-26 17:36 | 9.22435 | -22.15315 | 35938 ft | 493 kts | 227° |
| 2026-04-26 17:36 | 9.17781 | -22.20423 | 35944 ft | 493 kts | 227° |
| 2026-04-26 17:37 | 9.13128 | -22.25526 | 35945 ft | 493 kts | 227° |
| 2026-04-26 17:37 | 9.08503 | -22.30599 | 35944 ft | 494 kts | 227° |
| 2026-04-26 17:38 | 9.01522 | -22.38249 | 35939 ft | 494 kts | 227° |
| 2026-04-26 17:38 | 8.96854 | -22.43362 | 35943 ft | 494 kts | 227° |
| 2026-04-26 17:39 | 8.92192 | -22.48466 | 35945 ft | 494 kts | 227° |
| 2026-04-26 17:39 | 8.87523 | -22.53576 | 35942 ft | 495 kts | 227° |
| 2026-04-26 17:40 | 8.83639 | -22.57827 | 35944 ft | 495 kts | 227° |
| 2026-04-26 17:40 | 8.78175 | -22.63802 | 35944 ft | 495 kts | 227° |
| 2026-04-26 17:41 | 8.73500 | -22.68912 | 35943 ft | 495 kts | 227° |
| 2026-04-26 17:41 | 8.68826 | -22.74020 | 35942 ft | 495 kts | 227° |
| 2026-04-26 17:42 | 8.64150 | -22.79129 | 35944 ft | 495 kts | 227° |
| 2026-04-26 17:42 | 8.59471 | -22.84237 | 35945 ft | 496 kts | 227° |
| 2026-04-26 17:43 | 8.54783 | -22.89353 | 35945 ft | 496 kts | 227° |
| 2026-04-26 17:43 | 8.50096 | -22.94467 | 35944 ft | 496 kts | 227° |
| 2026-04-26 17:44 | 8.45413 | -22.99575 | 35944 ft | 496 kts | 227° |
| 2026-04-26 17:44 | 8.40722 | -23.04688 | 35944 ft | 496 kts | 227° |
| 2026-04-26 17:45 | 8.36066 | -23.09763 | 35944 ft | 496 kts | 226° |
| 2026-04-26 17:45 | 8.31342 | -23.14910 | 35945 ft | 497 kts | 226° |
| 2026-04-26 17:46 | 8.26639 | -23.20030 | 35944 ft | 497 kts | 226° |
| 2026-04-26 17:46 | 8.21964 | -23.25118 | 35944 ft | 497 kts | 226° |
| 2026-04-26 17:47 | 8.18022 | -23.29409 | 35945 ft | 497 kts | 226° |
| 2026-04-26 17:47 | 8.12556 | -23.35354 | 35944 ft | 497 kts | 226° |
| 2026-04-26 17:48 | 8.07851 | -23.40471 | 35944 ft | 497 kts | 226° |
| 2026-04-26 17:48 | 8.03149 | -23.45581 | 35944 ft | 497 kts | 226° |
| 2026-04-26 17:49 | 7.98445 | -23.50692 | 35944 ft | 497 kts | 226° |
| 2026-04-26 17:49 | 7.93740 | -23.55802 | 35944 ft | 497 kts | 226° |
| 2026-04-26 17:50 | 7.89032 | -23.60914 | 35937 ft | 497 kts | 226° |
| 2026-04-26 17:50 | 7.84323 | -23.66025 | 35940 ft | 497 kts | 226° |
| 2026-04-26 17:51 | 7.79613 | -23.71135 | 35942 ft | 497 kts | 226° |
| 2026-04-26 17:51 | 7.74906 | -23.76241 | 35938 ft | 497 kts | 226° |
| 2026-04-26 17:52 | 7.70200 | -23.81342 | 35939 ft | 497 kts | 226° |
| 2026-04-26 17:52 | 7.65494 | -23.86443 | 35939 ft | 496 kts | 226° |
| 2026-04-26 17:53 | 7.60792 | -23.91537 | 35936 ft | 497 kts | 226° |
| 2026-04-26 17:54 | 7.53719 | -23.99197 | 35936 ft | 497 kts | 226° |
| 2026-04-26 17:54 | 7.49005 | -24.04300 | 35939 ft | 497 kts | 226° |
| 2026-04-26 17:55 | 7.44292 | -24.09400 | 35940 ft | 497 kts | 226° |
| 2026-04-26 17:55 | 7.39613 | -24.14462 | 35939 ft | 497 kts | 226° |
| 2026-04-26 17:56 | 7.34872 | -24.19589 | 35939 ft | 497 kts | 226° |
| 2026-04-26 17:57 | 7.25483 | -24.29737 | 35938 ft | 497 kts | 225° |
| 2026-04-26 17:57 | 7.20766 | -24.34833 | 35939 ft | 498 kts | 225° |
| 2026-04-26 17:58 | 7.11327 | -24.45026 | 35939 ft | 497 kts | 225° |
| 2026-04-26 17:59 | 7.04247 | -24.52667 | 35939 ft | 497 kts | 226° |
| 2026-04-26 17:59 | 6.99529 | -24.57757 | 35939 ft | 497 kts | 225° |
| 2026-04-26 18:00 | 6.94809 | -24.62846 | 35941 ft | 497 kts | 226° |
| 2026-04-26 18:00 | 6.90088 | -24.67936 | 35945 ft | 497 kts | 226° |
| 2026-04-26 18:01 | 6.85396 | -24.72993 | 35937 ft | 498 kts | 225° |
| 2026-04-26 18:01 | 6.80670 | -24.78085 | 35939 ft | 498 kts | 225° |
| 2026-04-26 18:02 | 6.77507 | -24.81492 | 35939 ft | 498 kts | 225° |
| 2026-04-26 18:02 | 6.71217 | -24.88265 | 35939 ft | 498 kts | 225° |
| 2026-04-26 18:03 | 6.66491 | -24.93352 | 35939 ft | 498 kts | 225° |
| 2026-04-26 18:03 | 6.61763 | -24.98440 | 35939 ft | 498 kts | 225° |
| 2026-04-26 18:04 | 6.57036 | -25.03525 | 35938 ft | 498 kts | 225° |
| 2026-04-26 18:05 | 6.49947 | -25.11148 | 35938 ft | 497 kts | 225° |
| 2026-04-26 18:05 | 6.45223 | -25.16226 | 35939 ft | 497 kts | 225° |
| 2026-04-26 18:06 | 6.40502 | -25.21300 | 35939 ft | 497 kts | 225° |
| 2026-04-26 18:06 | 6.35778 | -25.26375 | 35939 ft | 497 kts | 225° |
| 2026-04-26 18:07 | 6.31051 | -25.31452 | 35939 ft | 497 kts | 225° |
| 2026-04-26 18:07 | 6.26330 | -25.36522 | 35942 ft | 497 kts | 225° |
| 2026-04-26 18:08 | 6.21600 | -25.41599 | 35936 ft | 497 kts | 225° |
| 2026-04-26 18:08 | 6.17711 | -25.45849 | 35938 ft | 497 kts | 226° |
| 2026-04-26 18:09 | 6.13072 | -25.51001 | 35943 ft | 497 kts | 226° |
| 2026-04-26 18:09 | 6.08429 | -25.56152 | 35942 ft | 497 kts | 226° |
| 2026-04-26 18:10 | 6.03778 | -25.61291 | 35938 ft | 497 kts | 226° |
| 2026-04-26 18:10 | 5.99125 | -25.66424 | 35939 ft | 497 kts | 226° |
| 2026-04-26 18:11 | 5.94470 | -25.71557 | 35937 ft | 497 kts | 226° |
| 2026-04-26 18:11 | 5.89817 | -25.76687 | 35939 ft | 497 kts | 226° |
| 2026-04-26 18:12 | 5.85162 | -25.81817 | 35937 ft | 497 kts | 226° |
| 2026-04-26 18:12 | 5.80505 | -25.86949 | 35936 ft | 497 kts | 226° |
| 2026-04-26 18:13 | 5.75852 | -25.92076 | 35934 ft | 497 kts | 226° |
| 2026-04-26 18:13 | 5.71193 | -25.97207 | 35939 ft | 497 kts | 226° |
| 2026-04-26 18:14 | 5.66534 | -26.02337 | 35940 ft | 497 kts | 226° |
| 2026-04-26 18:14 | 5.61872 | -26.07468 | 35939 ft | 497 kts | 226° |
| 2026-04-26 18:15 | 5.57211 | -26.12598 | 35931 ft | 497 kts | 226° |
| 2026-04-26 18:15 | 5.52550 | -26.17727 | 35933 ft | 497 kts | 226° |
| 2026-04-26 18:16 | 5.47887 | -26.22855 | 35937 ft | 497 kts | 226° |
| 2026-04-26 18:16 | 5.40898 | -26.30541 | 35936 ft | 497 kts | 226° |
| 2026-04-26 18:17 | 5.36240 | -26.35661 | 35934 ft | 496 kts | 226° |
| 2026-04-26 18:17 | 5.31584 | -26.40779 | 35934 ft | 496 kts | 226° |
| 2026-04-26 18:18 | 5.26961 | -26.45858 | 35934 ft | 496 kts | 226° |
| 2026-04-26 18:18 | 5.22302 | -26.50975 | 35934 ft | 496 kts | 226° |
| 2026-04-26 18:19 | 5.17646 | -26.56089 | 35931 ft | 496 kts | 226° |
| 2026-04-26 18:19 | 5.12988 | -26.61204 | 35926 ft | 496 kts | 225° |
| 2026-04-26 18:20 | 5.08334 | -26.66313 | 35931 ft | 496 kts | 225° |
| 2026-04-26 18:20 | 5.04465 | -26.70559 | 35927 ft | 496 kts | 225° |
| 2026-04-26 18:21 | 4.99020 | -26.76533 | 35929 ft | 496 kts | 225° |
| 2026-04-26 18:21 | 4.94359 | -26.81646 | 35928 ft | 496 kts | 225° |
| 2026-04-26 18:22 | 4.89698 | -26.86758 | 35929 ft | 496 kts | 225° |
| 2026-04-26 18:22 | 4.85041 | -26.91864 | 35928 ft | 496 kts | 225° |
| 2026-04-26 18:23 | 4.80388 | -26.96965 | 35931 ft | 496 kts | 225° |
| 2026-04-26 18:23 | 4.75737 | -27.02063 | 35933 ft | 496 kts | 225° |
| 2026-04-26 18:24 | 4.71076 | -27.07169 | 35928 ft | 497 kts | 225° |
| 2026-04-26 18:24 | 4.66400 | -27.12291 | 35928 ft | 498 kts | 225° |
| 2026-04-26 18:25 | 4.61755 | -27.17379 | 35931 ft | 498 kts | 225° |
| 2026-04-26 18:25 | 4.57081 | -27.22498 | 35927 ft | 498 kts | 225° |
| 2026-04-26 18:26 | 4.52406 | -27.27617 | 35928 ft | 498 kts | 225° |
| 2026-04-26 18:26 | 4.47728 | -27.32738 | 35927 ft | 498 kts | 225° |
| 2026-04-26 18:27 | 4.43054 | -27.37853 | 35925 ft | 498 kts | 225° |
| 2026-04-26 18:27 | 4.38376 | -27.42971 | 35926 ft | 498 kts | 225° |
| 2026-04-26 18:28 | 4.33679 | -27.48108 | 35923 ft | 501 kts | 225° |
| 2026-04-26 18:28 | 4.28967 | -27.53261 | 35925 ft | 501 kts | 225° |
| 2026-04-26 18:29 | 4.24260 | -27.58410 | 35923 ft | 501 kts | 225° |
| 2026-04-26 18:29 | 4.19551 | -27.63558 | 35925 ft | 501 kts | 225° |
| 2026-04-26 18:30 | 4.14843 | -27.68705 | 35924 ft | 501 kts | 225° |
| 2026-04-26 18:30 | 4.10134 | -27.73851 | 35925 ft | 501 kts | 225° |
| 2026-04-26 18:31 | 4.05426 | -27.78995 | 35926 ft | 501 kts | 225° |
| 2026-04-26 18:31 | 4.00705 | -27.84152 | 35924 ft | 503 kts | 225° |
| 2026-04-26 18:32 | 3.95977 | -27.89317 | 35922 ft | 503 kts | 225° |
| 2026-04-26 18:32 | 3.91249 | -27.94480 | 35922 ft | 503 kts | 225° |
| 2026-04-26 18:33 | 3.86520 | -27.99644 | 35924 ft | 503 kts | 225° |
| 2026-04-26 18:33 | 3.81794 | -28.04803 | 35925 ft | 503 kts | 225° |
| 2026-04-26 18:34 | 3.77063 | -28.09967 | 35923 ft | 503 kts | 225° |
| 2026-04-26 18:34 | 3.72324 | -28.15138 | 35922 ft | 504 kts | 225° |
| 2026-04-26 18:35 | 3.67621 | -28.20271 | 35924 ft | 502 kts | 225° |
| 2026-04-26 18:35 | 3.62903 | -28.25419 | 35925 ft | 501 kts | 225° |
| 2026-04-26 18:36 | 3.58195 | -28.30554 | 35923 ft | 500 kts | 225° |
| 2026-04-26 18:36 | 3.53485 | -28.35689 | 35922 ft | 500 kts | 225° |
| 2026-04-26 18:37 | 3.48777 | -28.40823 | 35925 ft | 500 kts | 225° |
| 2026-04-26 18:37 | 3.44069 | -28.45956 | 35925 ft | 500 kts | 225° |
| 2026-04-26 18:38 | 3.39361 | -28.51088 | 35922 ft | 500 kts | 225° |
| 2026-04-26 18:38 | 3.34656 | -28.56216 | 35923 ft | 500 kts | 225° |
| 2026-04-26 18:39 | 3.29943 | -28.61352 | 35922 ft | 501 kts | 225° |
| 2026-04-26 18:39 | 3.25224 | -28.66493 | 35926 ft | 501 kts | 225° |
| 2026-04-26 18:40 | 3.20508 | -28.71631 | 35922 ft | 501 kts | 224° |
| 2026-04-26 18:40 | 3.15792 | -28.76767 | 35922 ft | 501 kts | 224° |
| 2026-04-26 18:41 | 3.10458 | -28.81125 | 35925 ft | 493 kts | 207° |
| 2026-04-26 18:41 | 3.04480 | -28.84463 | 35922 ft | 492 kts | 205° |
| 2026-04-26 18:42 | 2.98402 | -28.87625 | 35922 ft | 492 kts | 204° |
| 2026-04-26 18:42 | 2.92320 | -28.90773 | 35919 ft | 492 kts | 205° |
| 2026-04-26 18:43 | 2.86250 | -28.93942 | 35919 ft | 492 kts | 205° |
| 2026-04-26 18:43 | 2.80182 | -28.97123 | 35921 ft | 493 kts | 205° |
| 2026-04-26 18:44 | 2.74141 | -29.00293 | 35922 ft | 494 kts | 205° |
| 2026-04-26 18:44 | 2.68052 | -29.03488 | 35922 ft | 494 kts | 205° |
| 2026-04-26 18:45 | 2.61968 | -29.06678 | 35919 ft | 493 kts | 205° |
| 2026-04-26 18:45 | 2.55902 | -29.09859 | 35919 ft | 492 kts | 205° |
| 2026-04-26 18:46 | 2.49839 | -29.13038 | 35919 ft | 492 kts | 205° |
| 2026-04-26 18:46 | 2.43775 | -29.16216 | 35919 ft | 492 kts | 205° |
| 2026-04-26 18:47 | 2.37713 | -29.19393 | 35916 ft | 492 kts | 205° |
| 2026-04-26 18:47 | 2.31661 | -29.22565 | 35917 ft | 492 kts | 205° |
| 2026-04-26 18:48 | 2.25612 | -29.25735 | 35920 ft | 491 kts | 205° |
| 2026-04-26 18:48 | 2.19567 | -29.28903 | 35919 ft | 491 kts | 205° |
| 2026-04-26 18:49 | 2.13520 | -29.32071 | 35917 ft | 491 kts | 205° |
| 2026-04-26 18:49 | 2.07472 | -29.35239 | 35917 ft | 491 kts | 205° |
| 2026-04-26 18:50 | 2.01426 | -29.38407 | 35917 ft | 491 kts | 205° |
| 2026-04-26 18:50 | 1.95413 | -29.41556 | 35912 ft | 492 kts | 206° |
| 2026-04-26 18:51 | 1.89345 | -29.44734 | 35913 ft | 493 kts | 206° |
| 2026-04-26 18:51 | 1.83271 | -29.47915 | 35916 ft | 493 kts | 206° |
| 2026-04-26 18:52 | 1.77194 | -29.51098 | 35913 ft | 493 kts | 206° |
| 2026-04-26 18:52 | 1.71123 | -29.54277 | 35916 ft | 493 kts | 206° |
| 2026-04-26 18:53 | 1.65043 | -29.57461 | 35915 ft | 494 kts | 206° |
| 2026-04-26 18:53 | 1.58942 | -29.60655 | 35916 ft | 496 kts | 206° |
| 2026-04-26 18:54 | 1.52815 | -29.63863 | 35917 ft | 497 kts | 206° |
| 2026-04-26 18:54 | 1.46690 | -29.67069 | 35917 ft | 497 kts | 206° |
| 2026-04-26 18:55 | 1.40567 | -29.70275 | 35916 ft | 497 kts | 206° |
| 2026-04-26 18:55 | 1.34438 | -29.73471 | 35917 ft | 497 kts | 205° |
| 2026-04-26 18:56 | 1.28296 | -29.76643 | 35916 ft | 496 kts | 205° |
| 2026-04-26 18:56 | 1.22165 | -29.79808 | 35917 ft | 496 kts | 205° |
| 2026-04-26 18:57 | 1.18102 | -29.81908 | 35916 ft | 496 kts | 205° |
| 2026-04-26 18:57 | 1.10930 | -29.85618 | 35914 ft | 497 kts | 205° |
| 2026-04-26 18:58 | 1.04787 | -29.88797 | 35919 ft | 498 kts | 205° |
| 2026-04-26 18:58 | 0.98638 | -29.91979 | 35917 ft | 497 kts | 206° |
| 2026-04-26 18:59 | 0.92497 | -29.95157 | 35922 ft | 496 kts | 206° |
| 2026-04-26 18:59 | 0.86369 | -29.98327 | 35920 ft | 496 kts | 206° |
| 2026-04-26 19:00 | 0.80242 | -30.01496 | 35923 ft | 496 kts | 206° |
| 2026-04-26 19:00 | 0.74114 | -30.04666 | 35919 ft | 496 kts | 206° |
| 2026-04-26 19:01 | 0.67985 | -30.07838 | 35922 ft | 496 kts | 206° |
| 2026-04-26 19:01 | 0.61857 | -30.11008 | 35917 ft | 496 kts | 206° |
| 2026-04-26 19:02 | 0.55738 | -30.14173 | 35924 ft | 495 kts | 205° |
| 2026-04-26 19:02 | 0.50651 | -30.16805 | 35923 ft | 495 kts | 205° |
| 2026-04-26 19:03 | 0.43498 | -30.20505 | 35920 ft | 495 kts | 205° |
| 2026-04-26 19:03 | 0.37376 | -30.23672 | 35918 ft | 495 kts | 205° |
| 2026-04-26 19:04 | 0.31296 | -30.26817 | 35920 ft | 495 kts | 206° |
| 2026-04-26 19:04 | 0.25192 | -30.29975 | 35925 ft | 494 kts | 206° |
| 2026-04-26 19:05 | 0.16047 | -30.34709 | 35922 ft | 493 kts | 206° |
| 2026-04-26 19:06 | 0.09955 | -30.37855 | 35926 ft | 493 kts | 206° |
| 2026-04-26 19:06 | 0.03857 | -30.41005 | 35925 ft | 494 kts | 206° |
| 2026-04-26 19:07 | -0.02260 | -30.44166 | 35918 ft | 496 kts | 206° |
| 2026-04-26 19:07 | -0.08398 | -30.47339 | 35925 ft | 498 kts | 206° |
| 2026-04-26 19:08 | -0.14549 | -30.50519 | 35923 ft | 498 kts | 206° |
| 2026-04-26 19:08 | -0.20703 | -30.53702 | 35927 ft | 498 kts | 206° |
| 2026-04-26 19:09 | -0.26856 | -30.56883 | 35930 ft | 498 kts | 206° |
| 2026-04-26 19:09 | -0.33004 | -30.60062 | 35928 ft | 498 kts | 206° |
| 2026-04-26 19:10 | -0.39154 | -30.63241 | 35927 ft | 498 kts | 206° |
| 2026-04-26 19:10 | -0.45261 | -30.66399 | 35927 ft | 498 kts | 206° |
| 2026-04-26 19:11 | -0.51416 | -30.69581 | 35928 ft | 498 kts | 206° |
| 2026-04-26 19:11 | -0.57574 | -30.72764 | 35927 ft | 499 kts | 206° |
| 2026-04-26 19:12 | -0.63739 | -30.75952 | 35928 ft | 499 kts | 206° |
| 2026-04-26 19:12 | -0.69908 | -30.79142 | 35928 ft | 501 kts | 206° |
| 2026-04-26 19:13 | -0.76100 | -30.82343 | 35928 ft | 501 kts | 206° |
| 2026-04-26 19:13 | -0.82011 | -30.85400 | 35927 ft | 501 kts | 206° |
| 2026-04-26 19:14 | -0.88203 | -30.88603 | 35927 ft | 501 kts | 206° |
| 2026-04-26 19:14 | -0.94398 | -30.91806 | 35928 ft | 502 kts | 206° |
| 2026-04-26 19:15 | -1.00598 | -30.95013 | 35923 ft | 502 kts | 206° |
| 2026-04-26 19:15 | -1.06810 | -30.98215 | 35925 ft | 503 kts | 206° |
| 2026-04-26 19:16 | -1.13024 | -31.01419 | 35926 ft | 503 kts | 206° |
| 2026-04-26 19:16 | -1.19245 | -31.04630 | 35928 ft | 503 kts | 206° |
| 2026-04-26 19:17 | -1.25461 | -31.07838 | 35925 ft | 503 kts | 206° |
| 2026-04-26 19:17 | -1.31675 | -31.11047 | 35924 ft | 503 kts | 206° |
| 2026-04-26 19:18 | -1.37896 | -31.14259 | 35928 ft | 503 kts | 206° |
| 2026-04-26 19:18 | -1.44113 | -31.17469 | 35925 ft | 503 kts | 206° |
| 2026-04-26 19:19 | -1.50329 | -31.20678 | 35932 ft | 503 kts | 206° |
| 2026-04-26 19:19 | -1.56542 | -31.23887 | 35931 ft | 503 kts | 206° |
| 2026-04-26 19:20 | -1.62765 | -31.27100 | 35924 ft | 503 kts | 206° |
| 2026-04-26 19:20 | -1.68952 | -31.30295 | 35924 ft | 506 kts | 206° |
| 2026-04-26 19:21 | -1.75218 | -31.33531 | 35923 ft | 507 kts | 206° |
| 2026-04-26 19:21 | -1.81486 | -31.36769 | 35925 ft | 507 kts | 206° |
| 2026-04-26 19:22 | -1.87752 | -31.40007 | 35924 ft | 507 kts | 206° |
| 2026-04-26 19:22 | -1.94018 | -31.43244 | 35928 ft | 507 kts | 206° |
| 2026-04-26 19:23 | -2.00282 | -31.46480 | 35924 ft | 507 kts | 206° |
| 2026-04-26 19:23 | -2.06545 | -31.49716 | 35925 ft | 506 kts | 206° |
| 2026-04-26 19:24 | -2.12800 | -31.52949 | 35928 ft | 506 kts | 206° |
| 2026-04-26 19:24 | -2.22176 | -31.57795 | 35925 ft | 505 kts | 206° |
| 2026-04-26 19:25 | -2.27366 | -31.60477 | 35925 ft | 505 kts | 206° |
| 2026-04-26 19:25 | -2.34661 | -31.64248 | 35928 ft | 504 kts | 206° |
| 2026-04-26 19:26 | -2.40886 | -31.67466 | 35927 ft | 504 kts | 206° |
| 2026-04-26 19:26 | -2.47110 | -31.70684 | 35928 ft | 504 kts | 206° |
| 2026-04-26 19:27 | -2.53333 | -31.73902 | 35925 ft | 504 kts | 206° |
| 2026-04-26 19:27 | -2.59518 | -31.77101 | 35928 ft | 504 kts | 206° |
| 2026-04-26 19:28 | -2.65750 | -31.80323 | 35929 ft | 505 kts | 206° |
| 2026-04-26 19:28 | -2.71991 | -31.83552 | 35927 ft | 505 kts | 206° |
| 2026-04-26 19:29 | -2.78229 | -31.86779 | 35925 ft | 505 kts | 206° |
| 2026-04-26 19:29 | -2.84473 | -31.90009 | 35925 ft | 505 kts | 206° |
| 2026-04-26 19:30 | -2.90710 | -31.93237 | 35925 ft | 505 kts | 206° |
| 2026-04-26 19:30 | -2.95943 | -31.95944 | 35926 ft | 506 kts | 206° |
| 2026-04-26 19:31 | -3.03227 | -31.99714 | 35924 ft | 507 kts | 206° |
| 2026-04-26 19:31 | -3.09497 | -32.02960 | 35925 ft | 507 kts | 206° |
| 2026-04-26 19:32 | -3.15767 | -32.06206 | 35922 ft | 507 kts | 206° |
| 2026-04-26 19:32 | -3.22035 | -32.09452 | 35925 ft | 508 kts | 206° |
| 2026-04-26 19:33 | -3.28166 | -32.12972 | 35926 ft | 510 kts | 215° |
| 2026-04-26 19:33 | -3.33895 | -32.17180 | 35922 ft | 512 kts | 216° |
| 2026-04-26 19:34 | -3.39520 | -32.21478 | 35925 ft | 512 kts | 217° |
| 2026-04-26 19:34 | -3.45170 | -32.25814 | 35925 ft | 512 kts | 217° |
| 2026-04-26 19:35 | -3.50829 | -32.30140 | 35922 ft | 512 kts | 217° |
| 2026-04-26 19:35 | -3.56491 | -32.34458 | 35926 ft | 512 kts | 217° |
| 2026-04-26 19:36 | -3.60280 | -32.37346 | 35931 ft | 512 kts | 217° |
| 2026-04-26 19:36 | -3.67836 | -32.43107 | 35935 ft | 513 kts | 217° |
| 2026-04-26 19:37 | -3.73515 | -32.47439 | 35937 ft | 513 kts | 217° |
| 2026-04-26 19:37 | -3.79191 | -32.51769 | 35962 ft | 513 kts | 217° |
| 2026-04-26 19:38 | -3.84869 | -32.56101 | 35960 ft | 513 kts | 217° |
| 2026-04-26 19:38 | -3.90547 | -32.60434 | 35952 ft | 513 kts | 217° |
| 2026-04-26 19:39 | -3.96228 | -32.64770 | 35945 ft | 514 kts | 217° |
| 2026-04-26 19:39 | -4.01917 | -32.69113 | 35936 ft | 514 kts | 217° |
| 2026-04-26 19:40 | -4.07613 | -32.73462 | 35930 ft | 514 kts | 217° |
| 2026-04-26 19:40 | -4.13302 | -32.77807 | 35930 ft | 514 kts | 217° |
| 2026-04-26 19:41 | -4.18995 | -32.82155 | 35931 ft | 514 kts | 217° |
| 2026-04-26 19:41 | -4.22762 | -32.85033 | 35933 ft | 515 kts | 217° |
| 2026-04-26 19:42 | -4.30377 | -32.90851 | 35933 ft | 514 kts | 217° |
| 2026-04-26 19:42 | -4.36065 | -32.95198 | 35933 ft | 514 kts | 217° |
| 2026-04-26 19:43 | -4.41745 | -32.99540 | 35936 ft | 514 kts | 217° |
| 2026-04-26 19:43 | -4.47430 | -33.03886 | 35936 ft | 514 kts | 217° |
| 2026-04-26 19:44 | -4.53074 | -33.08202 | 35933 ft | 513 kts | 217° |
| 2026-04-26 19:44 | -4.58750 | -33.12544 | 35933 ft | 513 kts | 217° |
| 2026-04-26 19:45 | -4.64425 | -33.16884 | 35934 ft | 513 kts | 218° |
| 2026-04-26 19:45 | -4.70095 | -33.21223 | 35936 ft | 512 kts | 218° |
| 2026-04-26 19:46 | -4.75757 | -33.25557 | 35933 ft | 512 kts | 218° |
| 2026-04-26 19:46 | -4.81420 | -33.29892 | 35942 ft | 514 kts | 217° |
| 2026-04-26 19:47 | -4.85231 | -33.32810 | 35936 ft | 516 kts | 217° |
| 2026-04-26 19:47 | -4.91866 | -33.37891 | 35939 ft | 517 kts | 217° |
| 2026-04-26 19:48 | -4.97581 | -33.42268 | 35937 ft | 517 kts | 217° |
| 2026-04-26 19:48 | -5.03293 | -33.46644 | 35935 ft | 517 kts | 218° |
| 2026-04-26 19:49 | -5.09004 | -33.51021 | 35938 ft | 517 kts | 217° |
| 2026-04-26 19:49 | -5.14732 | -33.55412 | 35941 ft | 519 kts | 217° |
| 2026-04-26 19:50 | -5.20473 | -33.59813 | 35944 ft | 519 kts | 217° |
| 2026-04-26 19:50 | -5.26212 | -33.64213 | 35943 ft | 519 kts | 217° |
| 2026-04-26 19:51 | -5.31955 | -33.68619 | 35939 ft | 519 kts | 217° |
| 2026-04-26 19:51 | -5.37691 | -33.73020 | 35940 ft | 519 kts | 217° |
| 2026-04-26 19:52 | -5.43419 | -33.77416 | 35938 ft | 518 kts | 217° |
| 2026-04-26 19:52 | -5.49145 | -33.81811 | 35939 ft | 518 kts | 217° |
| 2026-04-26 19:53 | -5.54870 | -33.86206 | 35946 ft | 518 kts | 217° |
| 2026-04-26 19:53 | -5.60593 | -33.90601 | 35942 ft | 518 kts | 217° |
| 2026-04-26 19:54 | -5.66280 | -33.94970 | 35941 ft | 518 kts | 217° |
| 2026-04-26 19:54 | -5.72003 | -33.99367 | 35942 ft | 517 kts | 217° |
| 2026-04-26 19:55 | -5.77715 | -34.03757 | 35939 ft | 517 kts | 217° |
| 2026-04-26 19:55 | -5.83423 | -34.08145 | 35939 ft | 517 kts | 217° |
| 2026-04-26 19:56 | -5.89135 | -34.12538 | 35938 ft | 517 kts | 217° |
| 2026-04-26 19:56 | -5.94843 | -34.16928 | 35935 ft | 517 kts | 217° |
| 2026-04-26 19:57 | -6.00547 | -34.21317 | 35938 ft | 517 kts | 217° |
| 2026-04-26 19:57 | -6.06254 | -34.25708 | 35939 ft | 517 kts | 217° |
| 2026-04-26 19:58 | -6.11964 | -34.30104 | 35935 ft | 517 kts | 217° |
| 2026-04-26 19:58 | -6.17670 | -34.34498 | 35937 ft | 517 kts | 217° |
| 2026-04-26 19:59 | -6.23378 | -34.38894 | 35938 ft | 517 kts | 217° |
| 2026-04-26 19:59 | -6.29086 | -34.43292 | 35934 ft | 517 kts | 217° |
| 2026-04-26 20:00 | -6.34789 | -34.47687 | 35944 ft | 516 kts | 217° |
| 2026-04-26 20:00 | -6.40492 | -34.52083 | 35941 ft | 517 kts | 217° |
| 2026-04-26 20:01 | -6.46209 | -34.56491 | 35940 ft | 518 kts | 217° |
| 2026-04-26 20:01 | -6.51918 | -34.60895 | 35939 ft | 518 kts | 217° |
| 2026-04-26 20:02 | -6.57632 | -34.65303 | 35937 ft | 517 kts | 217° |
| 2026-04-26 20:02 | -6.62377 | -34.68966 | 35940 ft | 517 kts | 217° |
| 2026-04-26 20:03 | -6.69014 | -34.74089 | 35938 ft | 517 kts | 217° |
| 2026-04-26 20:03 | -6.74731 | -34.78504 | 35938 ft | 518 kts | 217° |
| 2026-04-26 20:04 | -6.80446 | -34.82919 | 35940 ft | 518 kts | 217° |
| 2026-04-26 20:04 | -6.86157 | -34.87333 | 35936 ft | 518 kts | 217° |
| 2026-04-26 20:05 | -6.91869 | -34.91747 | 35941 ft | 517 kts | 217° |
| 2026-04-26 20:05 | -6.97570 | -34.96155 | 35939 ft | 516 kts | 217° |
| 2026-04-26 20:06 | -7.03263 | -35.00558 | 35940 ft | 516 kts | 217° |
| 2026-04-26 20:06 | -7.08956 | -35.04963 | 35937 ft | 516 kts | 217° |
| 2026-04-26 20:07 | -7.14644 | -35.09366 | 35938 ft | 516 kts | 217° |
| 2026-04-26 20:07 | -7.20333 | -35.13769 | 35940 ft | 515 kts | 217° |
| 2026-04-26 20:08 | -7.26009 | -35.18166 | 35940 ft | 515 kts | 217° |
| 2026-04-26 20:08 | -7.31684 | -35.22562 | 35941 ft | 515 kts | 217° |
| 2026-04-26 20:09 | -7.37321 | -35.26930 | 35948 ft | 515 kts | 217° |
| 2026-04-26 20:09 | -7.42999 | -35.31332 | 35948 ft | 515 kts | 217° |
| 2026-04-26 20:10 | -7.48675 | -35.35733 | 35953 ft | 515 kts | 217° |
| 2026-04-26 20:10 | -7.54345 | -35.40132 | 35952 ft | 514 kts | 217° |
| 2026-04-26 20:11 | -7.60016 | -35.44532 | 35955 ft | 514 kts | 217° |
| 2026-04-26 20:12 | -7.69271 | -35.49866 | 36252 ft | 512 kts | 202° |
| 2026-04-26 20:12 | -7.72519 | -35.51298 | 36644 ft | 506 kts | 202° |
| 2026-04-26 20:12 | -7.75725 | -35.52672 | 37209 ft | 497 kts | 201° |
| 2026-04-26 20:12 | -7.78899 | -35.54017 | 37564 ft | 493 kts | 201° |
| 2026-04-26 20:13 | -7.82058 | -35.55353 | 37796 ft | 491 kts | 201° |
| 2026-04-26 20:13 | -7.85206 | -35.56687 | 37945 ft | 492 kts | 201° |
| 2026-04-26 20:13 | -7.88362 | -35.58030 | 37964 ft | 491 kts | 201° |
| 2026-04-26 20:14 | -7.94620 | -35.60706 | 37969 ft | 489 kts | 201° |
| 2026-04-26 20:14 | -8.00925 | -35.63409 | 37968 ft | 496 kts | 201° |
| 2026-04-26 20:15 | -8.07314 | -35.66149 | 37972 ft | 502 kts | 201° |
| 2026-04-26 20:15 | -8.13726 | -35.68901 | 37980 ft | 505 kts | 201° |
| 2026-04-26 20:16 | -8.20184 | -35.71674 | 37982 ft | 504 kts | 201° |
| 2026-04-26 20:16 | -8.26626 | -35.74440 | 37985 ft | 503 kts | 201° |
| 2026-04-26 20:17 | -8.33063 | -35.77205 | 37984 ft | 501 kts | 201° |
| 2026-04-26 20:17 | -8.39474 | -35.79960 | 37988 ft | 500 kts | 201° |
| 2026-04-26 20:18 | -8.45867 | -35.82707 | 37989 ft | 499 kts | 201° |
| 2026-04-26 20:18 | -8.52255 | -35.85454 | 37992 ft | 499 kts | 201° |
| 2026-04-26 20:19 | -8.58643 | -35.88201 | 37994 ft | 499 kts | 201° |
| 2026-04-26 20:19 | -8.65032 | -35.90950 | 37994 ft | 499 kts | 201° |
| 2026-04-26 20:20 | -8.71408 | -35.93695 | 37996 ft | 498 kts | 201° |
| 2026-04-26 20:20 | -8.77788 | -35.96442 | 37997 ft | 498 kts | 201° |
| 2026-04-26 20:21 | -8.84138 | -35.99241 | 37991 ft | 499 kts | 206° |
| 2026-04-26 20:21 | -8.90037 | -36.02955 | 37997 ft | 500 kts | 213° |
| 2026-04-26 20:22 | -8.95756 | -36.06944 | 37997 ft | 499 kts | 214° |
| 2026-04-26 20:22 | -9.01449 | -36.10984 | 37996 ft | 499 kts | 214° |
| 2026-04-26 20:23 | -9.07138 | -36.15018 | 37997 ft | 500 kts | 214° |
| 2026-04-26 20:23 | -9.12834 | -36.19049 | 37996 ft | 500 kts | 214° |
| 2026-04-26 20:24 | -9.18531 | -36.23074 | 37991 ft | 500 kts | 214° |
| 2026-04-26 20:24 | -9.24248 | -36.27116 | 37994 ft | 502 kts | 214° |
| 2026-04-26 20:25 | -9.29968 | -36.31163 | 37995 ft | 502 kts | 214° |
| 2026-04-26 20:25 | -9.35690 | -36.35213 | 37998 ft | 502 kts | 214° |
| 2026-04-26 20:26 | -9.41414 | -36.39267 | 37990 ft | 502 kts | 214° |
| 2026-04-26 20:26 | -9.47138 | -36.43321 | 37989 ft | 502 kts | 214° |
| 2026-04-26 20:27 | -9.52820 | -36.47349 | 37988 ft | 502 kts | 214° |
| 2026-04-26 20:27 | -9.58538 | -36.51402 | 37989 ft | 502 kts | 214° |
| 2026-04-26 20:28 | -9.64256 | -36.55458 | 37981 ft | 502 kts | 214° |
| 2026-04-26 20:28 | -9.69975 | -36.59520 | 37981 ft | 502 kts | 214° |
| 2026-04-26 20:29 | -9.75687 | -36.63593 | 37983 ft | 502 kts | 214° |
| 2026-04-26 20:29 | -9.81401 | -36.67669 | 37980 ft | 502 kts | 214° |
| 2026-04-26 20:30 | -9.87117 | -36.71748 | 37978 ft | 502 kts | 214° |
| 2026-04-26 20:30 | -9.92834 | -36.75828 | 37980 ft | 502 kts | 214° |
| 2026-04-26 20:31 | -9.98553 | -36.79913 | 37978 ft | 503 kts | 214° |
| 2026-04-26 20:31 | -10.04270 | -36.84005 | 37978 ft | 503 kts | 214° |
| 2026-04-26 20:32 | -10.09983 | -36.88096 | 37973 ft | 502 kts | 214° |
| 2026-04-26 20:32 | -10.15693 | -36.92185 | 37977 ft | 502 kts | 214° |
| 2026-04-26 20:33 | -10.21402 | -36.96273 | 37975 ft | 502 kts | 214° |
| 2026-04-26 20:33 | -10.27110 | -37.00363 | 37980 ft | 502 kts | 214° |
| 2026-04-26 20:34 | -10.32810 | -37.04449 | 37980 ft | 501 kts | 214° |
| 2026-04-26 20:34 | -10.38506 | -37.08535 | 37978 ft | 501 kts | 214° |
| 2026-04-26 20:35 | -10.44162 | -37.12593 | 37981 ft | 500 kts | 215° |
| 2026-04-26 20:35 | -10.49850 | -37.16676 | 37984 ft | 501 kts | 214° |
| 2026-04-26 20:36 | -10.55538 | -37.20761 | 37981 ft | 500 kts | 215° |
| 2026-04-26 20:36 | -10.61206 | -37.24834 | 37983 ft | 498 kts | 215° |
| 2026-04-26 20:37 | -10.66861 | -37.28899 | 37982 ft | 498 kts | 215° |
| 2026-04-26 20:37 | -10.71558 | -37.32277 | 37985 ft | 498 kts | 214° |
| 2026-04-26 20:38 | -10.77210 | -37.36343 | 37983 ft | 497 kts | 215° |
| 2026-04-26 20:38 | -10.82852 | -37.40404 | 37984 ft | 496 kts | 215° |
| 2026-04-26 20:39 | -10.88473 | -37.44453 | 37982 ft | 495 kts | 214° |
| 2026-04-26 20:39 | -10.94084 | -37.48496 | 37981 ft | 494 kts | 214° |
| 2026-04-26 20:40 | -10.99693 | -37.52538 | 37985 ft | 494 kts | 214° |
| 2026-04-26 20:40 | -11.05302 | -37.56583 | 37985 ft | 494 kts | 214° |
| 2026-04-26 20:41 | -11.10915 | -37.60633 | 37988 ft | 494 kts | 214° |
| 2026-04-26 20:41 | -11.16518 | -37.64677 | 37988 ft | 494 kts | 215° |
| 2026-04-26 20:42 | -11.22122 | -37.68724 | 37987 ft | 494 kts | 215° |
| 2026-04-26 20:42 | -11.27729 | -37.72776 | 37988 ft | 494 kts | 214° |
| 2026-04-26 20:43 | -11.33338 | -37.76830 | 37988 ft | 495 kts | 215° |
| 2026-04-26 20:43 | -11.38951 | -37.80890 | 37988 ft | 494 kts | 214° |
| 2026-04-26 20:44 | -11.44559 | -37.84949 | 37986 ft | 494 kts | 214° |
| 2026-04-26 20:44 | -11.50160 | -37.89014 | 37988 ft | 494 kts | 215° |
| 2026-04-26 20:45 | -11.55755 | -37.93088 | 37991 ft | 494 kts | 215° |
| 2026-04-26 20:45 | -11.61347 | -37.97163 | 37992 ft | 494 kts | 215° |
| 2026-04-26 20:46 | -11.66946 | -38.01243 | 37991 ft | 495 kts | 215° |
| 2026-04-26 20:46 | -11.72548 | -38.05329 | 37989 ft | 495 kts | 215° |
| 2026-04-26 20:47 | -11.78115 | -38.09390 | 37988 ft | 495 kts | 214° |
| 2026-04-26 20:47 | -11.83755 | -38.13507 | 37987 ft | 495 kts | 215° |
| 2026-04-26 20:48 | -11.89309 | -38.17562 | 37989 ft | 494 kts | 215° |
| 2026-04-26 20:48 | -11.94891 | -38.21641 | 37993 ft | 494 kts | 215° |
| 2026-04-26 20:49 | -12.00487 | -38.25732 | 37992 ft | 495 kts | 215° |
| 2026-04-26 20:49 | -12.06085 | -38.29827 | 37991 ft | 495 kts | 215° |
| 2026-04-26 20:50 | -12.11684 | -38.33924 | 37993 ft | 495 kts | 215° |
| 2026-04-26 20:50 | -12.17281 | -38.38022 | 37996 ft | 495 kts | 215° |
| 2026-04-26 20:51 | -12.22879 | -38.42123 | 37998 ft | 495 kts | 215° |
| 2026-04-26 20:51 | -12.28481 | -38.46229 | 37995 ft | 496 kts | 215° |
| 2026-04-26 20:52 | -12.34092 | -38.50343 | 37999 ft | 497 kts | 215° |
| 2026-04-26 20:52 | -12.39701 | -38.54459 | 37990 ft | 496 kts | 216° |
| 2026-04-26 20:53 | -12.45307 | -38.58574 | 37992 ft | 495 kts | 216° |
| 2026-04-26 20:53 | -12.50904 | -38.62686 | 37994 ft | 496 kts | 216° |
| 2026-04-26 20:54 | -12.56469 | -38.66776 | 37996 ft | 496 kts | 216° |
| 2026-04-26 20:54 | -12.62069 | -38.70893 | 37991 ft | 497 kts | 216° |
| 2026-04-26 20:55 | -12.67682 | -38.75024 | 37985 ft | 496 kts | 216° |
| 2026-04-26 20:55 | -12.73291 | -38.79152 | 37993 ft | 497 kts | 216° |
| 2026-04-26 20:56 | -12.78899 | -38.83292 | 37996 ft | 497 kts | 216° |
| 2026-04-26 20:56 | -12.84503 | -38.87429 | 37994 ft | 496 kts | 216° |
| 2026-04-26 20:57 | -12.90103 | -38.91564 | 37993 ft | 495 kts | 216° |
| 2026-04-26 20:57 | -12.95682 | -38.95697 | 37993 ft | 495 kts | 216° |
| 2026-04-26 20:58 | -13.01259 | -38.99834 | 37993 ft | 495 kts | 216° |
| 2026-04-26 20:58 | -13.06836 | -39.03972 | 37992 ft | 494 kts | 216° |
| 2026-04-26 20:59 | -13.12409 | -39.08107 | 37993 ft | 495 kts | 216° |
| 2026-04-26 20:59 | -13.17980 | -39.12243 | 37995 ft | 494 kts | 216° |
| 2026-04-26 21:00 | -13.23546 | -39.16377 | 38000 ft | 494 kts | 217° |
| 2026-04-26 21:00 | -13.29116 | -39.20518 | 38004 ft | 494 kts | 216° |
| 2026-04-26 21:01 | -13.34687 | -39.24661 | 38005 ft | 494 kts | 217° |
| 2026-04-26 21:01 | -13.40215 | -39.28774 | 38000 ft | 494 kts | 217° |
| 2026-04-26 21:02 | -13.45811 | -39.32941 | 38004 ft | 493 kts | 217° |
| 2026-04-26 21:02 | -13.51322 | -39.37058 | 38009 ft | 493 kts | 217° |
| 2026-04-26 21:03 | -13.56869 | -39.41219 | 38011 ft | 494 kts | 217° |
| 2026-04-26 21:03 | -13.62394 | -39.45364 | 38008 ft | 494 kts | 217° |
| 2026-04-26 21:04 | -13.67944 | -39.49528 | 38009 ft | 494 kts | 217° |
| 2026-04-26 21:04 | -13.73498 | -39.53695 | 38008 ft | 494 kts | 217° |
| 2026-04-26 21:05 | -13.79049 | -39.57863 | 38009 ft | 494 kts | 217° |
| 2026-04-26 21:05 | -13.84601 | -39.62034 | 38008 ft | 494 kts | 217° |
| 2026-04-26 21:06 | -13.90158 | -39.66212 | 38002 ft | 494 kts | 217° |
| 2026-04-26 21:06 | -13.95713 | -39.70390 | 38003 ft | 494 kts | 217° |
| 2026-04-26 21:07 | -14.01266 | -39.74570 | 38003 ft | 494 kts | 217° |
| 2026-04-26 21:07 | -14.06816 | -39.78750 | 38002 ft | 494 kts | 217° |
| 2026-04-26 21:08 | -14.12370 | -39.82935 | 38006 ft | 495 kts | 217° |
| 2026-04-26 21:08 | -14.17931 | -39.87128 | 38006 ft | 496 kts | 217° |
| 2026-04-26 21:09 | -14.23501 | -39.91331 | 38004 ft | 496 kts | 217° |
| 2026-04-26 21:09 | -14.29062 | -39.95530 | 38009 ft | 496 kts | 217° |
| 2026-04-26 21:10 | -14.34585 | -39.99702 | 38015 ft | 496 kts | 217° |
| 2026-04-26 21:10 | -14.40149 | -40.03908 | 38019 ft | 496 kts | 217° |
| 2026-04-26 21:11 | -14.45753 | -40.08147 | 38015 ft | 496 kts | 217° |
| 2026-04-26 21:11 | -14.51286 | -40.12335 | 38022 ft | 497 kts | 217° |
| 2026-04-26 21:12 | -14.56855 | -40.16553 | 38023 ft | 496 kts | 217° |
| 2026-04-26 21:12 | -14.62422 | -40.20773 | 38019 ft | 496 kts | 217° |
| 2026-04-26 21:13 | -14.67988 | -40.24995 | 38030 ft | 497 kts | 217° |
| 2026-04-26 21:13 | -14.73556 | -40.29221 | 38026 ft | 496 kts | 217° |
| 2026-04-26 21:14 | -14.79117 | -40.33444 | 38027 ft | 496 kts | 217° |
| 2026-04-26 21:14 | -14.84678 | -40.37670 | 38024 ft | 497 kts | 217° |
| 2026-04-26 21:15 | -14.90247 | -40.41905 | 38023 ft | 497 kts | 217° |
| 2026-04-26 21:15 | -14.95810 | -40.46138 | 38020 ft | 497 kts | 217° |
| 2026-04-26 21:16 | -15.01379 | -40.50379 | 38024 ft | 497 kts | 217° |
| 2026-04-26 21:16 | -15.06950 | -40.54624 | 38022 ft | 497 kts | 217° |
| 2026-04-26 21:17 | -15.12514 | -40.58867 | 38019 ft | 497 kts | 217° |
| 2026-04-26 21:17 | -15.18081 | -40.63114 | 38017 ft | 497 kts | 217° |
| 2026-04-26 21:18 | -15.23643 | -40.67360 | 38019 ft | 497 kts | 217° |
| 2026-04-26 21:18 | -15.29211 | -40.71615 | 38018 ft | 497 kts | 217° |
| 2026-04-26 21:19 | -15.34777 | -40.75869 | 38015 ft | 497 kts | 217° |
| 2026-04-26 21:19 | -15.40345 | -40.80130 | 38017 ft | 497 kts | 217° |
| 2026-04-26 21:20 | -15.45908 | -40.84388 | 38025 ft | 496 kts | 217° |
| 2026-04-26 21:20 | -15.48635 | -40.86478 | 38063 ft | 475 kts | 217° |
| 2026-04-26 21:20 | -15.51263 | -40.88490 | 38019 ft | 471 kts | 217° |
| 2026-04-26 21:21 | -15.56573 | -40.92562 | 38020 ft | 479 kts | 217° |
| 2026-04-26 21:21 | -15.61945 | -40.96683 | 38024 ft | 480 kts | 217° |
| 2026-04-26 21:22 | -15.67267 | -41.00768 | 38021 ft | 479 kts | 217° |
| 2026-04-26 21:22 | -15.72619 | -41.04879 | 38021 ft | 479 kts | 217° |
| 2026-04-26 21:23 | -15.80638 | -41.11044 | 38022 ft | 478 kts | 217° |
| 2026-04-26 21:23 | -15.85979 | -41.15154 | 38018 ft | 478 kts | 217° |
| 2026-04-26 21:24 | -15.91320 | -41.19266 | 38016 ft | 478 kts | 217° |
| 2026-04-26 21:24 | -15.96659 | -41.23379 | 38007 ft | 478 kts | 217° |
| 2026-04-26 21:25 | -16.01090 | -41.26791 | 38012 ft | 478 kts | 217° |
| 2026-04-26 21:25 | -16.06431 | -41.30910 | 38009 ft | 478 kts | 217° |
| 2026-04-26 21:26 | -16.11768 | -41.35031 | 38014 ft | 478 kts | 217° |
| 2026-04-26 21:26 | -16.17107 | -41.39155 | 38011 ft | 478 kts | 217° |
| 2026-04-26 21:27 | -16.22439 | -41.43275 | 38010 ft | 477 kts | 217° |
| 2026-04-26 21:27 | -16.27768 | -41.47396 | 38003 ft | 477 kts | 217° |
| 2026-04-26 21:28 | -16.33097 | -41.51520 | 37996 ft | 477 kts | 217° |
| 2026-04-26 21:28 | -16.38424 | -41.55645 | 38001 ft | 477 kts | 217° |
| 2026-04-26 21:29 | -16.43752 | -41.59774 | 38001 ft | 477 kts | 217° |
| 2026-04-26 21:29 | -16.49079 | -41.63905 | 37995 ft | 477 kts | 217° |
| 2026-04-26 21:30 | -16.54405 | -41.68038 | 38000 ft | 477 kts | 217° |
| 2026-04-26 21:30 | -16.59728 | -41.72172 | 37992 ft | 477 kts | 217° |
| 2026-04-26 21:31 | -16.65055 | -41.76312 | 37997 ft | 477 kts | 217° |
| 2026-04-26 21:31 | -16.70376 | -41.80450 | 37992 ft | 477 kts | 217° |
| 2026-04-26 21:32 | -16.75701 | -41.84594 | 37992 ft | 478 kts | 217° |
| 2026-04-26 21:32 | -16.81023 | -41.88739 | 37992 ft | 478 kts | 217° |
| 2026-04-26 21:33 | -16.86316 | -41.92863 | 37993 ft | 478 kts | 217° |
| 2026-04-26 21:33 | -16.91634 | -41.97017 | 37988 ft | 478 kts | 217° |
| 2026-04-26 21:34 | -16.96958 | -42.01173 | 37993 ft | 478 kts | 217° |
| 2026-04-26 21:34 | -17.02292 | -42.05339 | 37987 ft | 479 kts | 217° |
| 2026-04-26 21:35 | -17.07621 | -42.09505 | 37992 ft | 478 kts | 218° |
| 2026-04-26 21:35 | -17.12945 | -42.13671 | 37987 ft | 478 kts | 218° |
| 2026-04-26 21:36 | -17.18265 | -42.17839 | 37997 ft | 478 kts | 218° |
| 2026-04-26 21:36 | -17.23579 | -42.22004 | 38005 ft | 478 kts | 218° |
| 2026-04-26 21:37 | -17.28913 | -42.26187 | 38004 ft | 479 kts | 218° |
| 2026-04-26 21:37 | -17.34240 | -42.30368 | 38008 ft | 478 kts | 218° |
| 2026-04-26 21:38 | -17.39561 | -42.34547 | 38012 ft | 478 kts | 218° |
| 2026-04-26 21:38 | -17.44884 | -42.38732 | 38017 ft | 478 kts | 218° |
| 2026-04-26 21:39 | -17.50204 | -42.42917 | 38015 ft | 478 kts | 218° |
| 2026-04-26 21:39 | -17.55523 | -42.47105 | 38024 ft | 478 kts | 218° |
| 2026-04-26 21:40 | -17.60840 | -42.51294 | 38022 ft | 478 kts | 218° |
| 2026-04-26 21:40 | -17.66160 | -42.55488 | 38019 ft | 478 kts | 218° |
| 2026-04-26 21:41 | -17.71474 | -42.59680 | 38024 ft | 478 kts | 218° |
| 2026-04-26 21:41 | -17.76785 | -42.63874 | 38021 ft | 478 kts | 218° |
| 2026-04-26 21:42 | -17.82058 | -42.68042 | 38017 ft | 478 kts | 218° |
| 2026-04-26 21:42 | -17.87363 | -42.72237 | 38024 ft | 478 kts | 218° |
| 2026-04-26 21:43 | -17.92670 | -42.76437 | 38023 ft | 477 kts | 218° |
| 2026-04-26 21:43 | -17.97967 | -42.80633 | 38019 ft | 476 kts | 218° |
| 2026-04-26 21:44 | -18.03260 | -42.84829 | 38019 ft | 477 kts | 218° |
| 2026-04-26 21:44 | -18.08555 | -42.89029 | 38013 ft | 477 kts | 218° |
| 2026-04-26 21:45 | -18.13851 | -42.93233 | 38013 ft | 477 kts | 219° |
| 2026-04-26 21:45 | -18.19134 | -42.97431 | 38021 ft | 475 kts | 219° |
| 2026-04-26 21:46 | -18.24409 | -43.01626 | 38019 ft | 475 kts | 219° |
| 2026-04-26 21:46 | -18.29679 | -43.05820 | 38028 ft | 475 kts | 219° |
| 2026-04-26 21:47 | -18.34956 | -43.10022 | 38027 ft | 475 kts | 219° |
| 2026-04-26 21:47 | -18.40219 | -43.14219 | 38026 ft | 474 kts | 219° |
| 2026-04-26 21:48 | -18.45454 | -43.18451 | 38013 ft | 474 kts | 219° |
| 2026-04-26 21:48 | -18.50678 | -43.22694 | 38019 ft | 474 kts | 219° |
| 2026-04-26 21:49 | -18.55898 | -43.26932 | 38032 ft | 473 kts | 219° |
| 2026-04-26 21:49 | -18.61111 | -43.31162 | 38025 ft | 472 kts | 219° |
| 2026-04-26 21:50 | -18.65437 | -43.34668 | 38021 ft | 472 kts | 219° |
| 2026-04-26 21:50 | -18.71540 | -43.39511 | 38023 ft | 472 kts | 219° |
| 2026-04-26 21:51 | -18.76793 | -43.43663 | 38028 ft | 471 kts | 219° |
| 2026-04-26 21:51 | -18.82034 | -43.47822 | 38021 ft | 471 kts | 219° |
| 2026-04-26 21:52 | -18.87266 | -43.51987 | 38031 ft | 471 kts | 219° |
| 2026-04-26 21:52 | -18.92529 | -43.56113 | 38031 ft | 471 kts | 218° |
| 2026-04-26 21:53 | -18.97847 | -43.60169 | 38021 ft | 472 kts | 218° |
| 2026-04-26 21:53 | -19.03167 | -43.64227 | 38034 ft | 472 kts | 218° |
| 2026-04-26 21:54 | -19.08478 | -43.68300 | 38032 ft | 472 kts | 218° |
| 2026-04-26 21:54 | -19.13801 | -43.72396 | 38025 ft | 477 kts | 218° |
| 2026-04-26 21:55 | -19.19204 | -43.76559 | 38035 ft | 485 kts | 218° |
| 2026-04-26 21:55 | -19.24695 | -43.80791 | 38029 ft | 491 kts | 218° |
| 2026-04-26 21:56 | -19.30209 | -43.85042 | 38019 ft | 490 kts | 218° |
| 2026-04-26 21:56 | -19.35712 | -43.89288 | 38037 ft | 488 kts | 218° |
| 2026-04-26 21:57 | -19.41194 | -43.93523 | 38053 ft | 488 kts | 218° |
| 2026-04-26 21:57 | -19.46680 | -43.97764 | 38065 ft | 488 kts | 218° |
| 2026-04-26 21:58 | -19.52168 | -44.02012 | 38066 ft | 488 kts | 218° |
| 2026-04-26 21:58 | -19.57643 | -44.06254 | 38069 ft | 488 kts | 218° |
| 2026-04-26 21:59 | -19.63140 | -44.10477 | 38012 ft | 488 kts | 218° |
| 2026-04-26 21:59 | -19.68604 | -44.14660 | 38025 ft | 488 kts | 218° |
| 2026-04-26 22:00 | -19.74094 | -44.18886 | 38012 ft | 488 kts | 218° |
| 2026-04-26 22:00 | -19.79576 | -44.23124 | 38016 ft | 487 kts | 218° |
| 2026-04-26 22:01 | -19.85056 | -44.27367 | 38020 ft | 487 kts | 218° |
| 2026-04-26 22:01 | -19.90533 | -44.31610 | 38019 ft | 487 kts | 218° |
| 2026-04-26 22:02 | -19.95087 | -44.35141 | 38018 ft | 487 kts | 218° |
| 2026-04-26 22:02 | -20.01490 | -44.40108 | 38020 ft | 487 kts | 218° |
| 2026-04-26 22:03 | -20.06966 | -44.44361 | 38021 ft | 488 kts | 218° |
| 2026-04-26 22:03 | -20.12443 | -44.48618 | 38025 ft | 488 kts | 219° |
| 2026-04-26 22:04 | -20.17915 | -44.52878 | 38024 ft | 487 kts | 219° |
| 2026-04-26 22:04 | -20.23387 | -44.57133 | 38024 ft | 487 kts | 219° |
| 2026-04-26 22:05 | -20.28856 | -44.61388 | 38021 ft | 487 kts | 219° |
| 2026-04-26 22:05 | -20.34327 | -44.65648 | 38021 ft | 487 kts | 219° |
| 2026-04-26 22:06 | -20.39788 | -44.69907 | 38023 ft | 486 kts | 219° |
| 2026-04-26 22:06 | -20.45244 | -44.74168 | 38025 ft | 486 kts | 219° |
| 2026-04-26 22:07 | -20.50659 | -44.78402 | 38032 ft | 486 kts | 219° |
| 2026-04-26 22:07 | -20.55229 | -44.81974 | 38027 ft | 485 kts | 219° |
| 2026-04-26 22:08 | -20.61560 | -44.86916 | 38025 ft | 485 kts | 219° |
| 2026-04-26 22:08 | -20.67006 | -44.91181 | 38024 ft | 482 kts | 220° |
| 2026-04-26 22:09 | -20.69389 | -44.93604 | 38040 ft | 467 kts | 236° |
| 2026-04-26 22:09 | -20.71011 | -44.96535 | 38029 ft | 455 kts | 251° |
| 2026-04-26 22:09 | -20.71770 | -44.99772 | 38027 ft | 447 kts | 268° |
| 2026-04-26 22:09 | -20.71765 | -45.03072 | 38027 ft | 445 kts | 276° |
| 2026-04-26 22:10 | -20.71182 | -45.09674 | 38022 ft | 448 kts | 277° |
| 2026-04-26 22:10 | -20.70526 | -45.16297 | 38023 ft | 450 kts | 277° |
| 2026-04-26 22:11 | -20.69859 | -45.22947 | 38022 ft | 451 kts | 277° |
| 2026-04-26 22:11 | -20.69195 | -45.29606 | 38023 ft | 450 kts | 277° |
| 2026-04-26 22:12 | -20.68531 | -45.36252 | 38020 ft | 450 kts | 277° |
| 2026-04-26 22:12 | -20.67936 | -45.42909 | 38006 ft | 451 kts | 271° |
| 2026-04-26 22:13 | -20.68364 | -45.46220 | 38014 ft | 454 kts | 255° |
| 2026-04-26 22:13 | -20.69669 | -45.49288 | 38014 ft | 458 kts | 239° |
| 2026-04-26 22:13 | -20.73186 | -45.53567 | 38010 ft | 465 kts | 228° |
| 2026-04-26 22:14 | -20.78607 | -45.59176 | 38010 ft | 468 kts | 227° |
| 2026-04-26 22:14 | -20.83315 | -45.63980 | 38007 ft | 468 kts | 227° |
| 2026-04-26 22:15 | -20.87264 | -45.68008 | 38007 ft | 468 kts | 227° |
| 2026-04-26 22:15 | -20.91978 | -45.72805 | 38008 ft | 468 kts | 227° |
| 2026-04-26 22:16 | -20.96706 | -45.77581 | 38005 ft | 467 kts | 227° |
| 2026-04-26 22:16 | -21.01409 | -45.82311 | 38003 ft | 467 kts | 227° |
| 2026-04-26 22:17 | -21.06146 | -45.87071 | 38004 ft | 467 kts | 227° |
| 2026-04-26 22:17 | -21.10879 | -45.91835 | 38005 ft | 467 kts | 227° |
| 2026-04-26 22:18 | -21.15611 | -45.96600 | 38001 ft | 467 kts | 227° |
| 2026-04-26 22:18 | -21.20351 | -46.01365 | 38001 ft | 467 kts | 227° |
| 2026-04-26 22:19 | -21.25088 | -46.06122 | 38001 ft | 467 kts | 227° |
| 2026-04-26 22:19 | -21.29826 | -46.10884 | 38001 ft | 467 kts | 227° |
| 2026-04-26 22:20 | -21.32191 | -46.13264 | 37668 ft | 467 kts | 227° |
| 2026-04-26 22:20 | -21.34557 | -46.15649 | 37199 ft | 464 kts | 227° |
| 2026-04-26 22:20 | -21.36889 | -46.17998 | 37005 ft | 456 kts | 227° |
| 2026-04-26 22:20 | -21.39183 | -46.20299 | 36787 ft | 447 kts | 227° |
| 2026-04-26 22:21 | -21.41442 | -46.22562 | 36481 ft | 442 kts | 227° |
| 2026-04-26 22:21 | -21.43680 | -46.24800 | 36113 ft | 438 kts | 227° |
| 2026-04-26 22:21 | -21.45926 | -46.26996 | 35714 ft | 437 kts | 224° |
| 2026-04-26 22:21 | -21.48546 | -46.28690 | 35268 ft | 444 kts | 206° |
| 2026-04-26 22:22 | -21.51529 | -46.29531 | 34595 ft | 446 kts | 189° |
| 2026-04-26 22:22 | -21.54641 | -46.29432 | 33746 ft | 451 kts | 172° |
| 2026-04-26 22:22 | -21.57621 | -46.28367 | 32862 ft | 454 kts | 155° |
| 2026-04-26 22:22 | -21.60222 | -46.26456 | 32041 ft | 454 kts | 141° |
| 2026-04-26 22:23 | -21.62544 | -46.24187 | 31265 ft | 448 kts | 138° |
| 2026-04-26 22:23 | -21.64785 | -46.21884 | 30532 ft | 443 kts | 138° |
| 2026-04-26 22:23 | -21.66988 | -46.19600 | 29756 ft | 437 kts | 137° |
| 2026-04-26 22:23 | -21.69159 | -46.17344 | 28930 ft | 431 kts | 137° |
| 2026-04-26 22:24 | -21.71299 | -46.15118 | 28161 ft | 425 kts | 137° |
| 2026-04-26 22:24 | -21.73409 | -46.12920 | 27414 ft | 419 kts | 137° |
| 2026-04-26 22:24 | -21.75487 | -46.10750 | 26651 ft | 415 kts | 138° |
| 2026-04-26 22:24 | -21.77553 | -46.08606 | 25866 ft | 410 kts | 140° |
| 2026-04-26 22:25 | -21.79823 | -46.06775 | 25336 ft | 407 kts | 152° |
| 2026-04-26 22:25 | -21.82364 | -46.05524 | 25079 ft | 396 kts | 167° |
| 2026-04-26 22:25 | -21.85023 | -46.04984 | 24987 ft | 386 kts | 181° |
| 2026-04-26 22:25 | -21.87664 | -46.05172 | 24842 ft | 377 kts | 197° |
| 2026-04-26 22:26 | -21.90172 | -46.05937 | 24580 ft | 374 kts | 203° |
| 2026-04-26 22:26 | -21.92637 | -46.06857 | 24193 ft | 374 kts | 204° |
| 2026-04-26 22:26 | -21.95075 | -46.07780 | 24047 ft | 369 kts | 204° |
| 2026-04-26 22:26 | -21.97497 | -46.08687 | 24040 ft | 369 kts | 204° |
| 2026-04-26 22:27 | -21.99930 | -46.09592 | 24035 ft | 370 kts | 204° |
| 2026-04-26 22:27 | -22.02365 | -46.10492 | 24033 ft | 370 kts | 204° |
| 2026-04-26 22:27 | -22.04802 | -46.11390 | 24032 ft | 370 kts | 204° |
| 2026-04-26 22:27 | -22.07240 | -46.12286 | 24033 ft | 370 kts | 204° |
| 2026-04-26 22:28 | -22.09679 | -46.13182 | 24036 ft | 370 kts | 204° |
| 2026-04-26 22:28 | -22.12117 | -46.14078 | 24031 ft | 370 kts | 204° |
| 2026-04-26 22:28 | -22.14553 | -46.14975 | 24033 ft | 370 kts | 204° |
| 2026-04-26 22:28 | -22.16996 | -46.15872 | 24023 ft | 371 kts | 204° |
| 2026-04-26 22:29 | -22.19439 | -46.16771 | 23649 ft | 374 kts | 204° |
| 2026-04-26 22:29 | -22.21869 | -46.17666 | 23279 ft | 372 kts | 204° |
| 2026-04-26 22:29 | -22.24304 | -46.18560 | 22993 ft | 368 kts | 204° |
| 2026-04-26 22:29 | -22.26721 | -46.19448 | 22646 ft | 365 kts | 204° |
| 2026-04-26 22:30 | -22.29116 | -46.20331 | 22325 ft | 362 kts | 204° |
| 2026-04-26 22:30 | -22.31514 | -46.21154 | 22002 ft | 362 kts | 199° |
| 2026-04-26 22:30 | -22.33988 | -46.21672 | 21672 ft | 362 kts | 193° |
| 2026-04-26 22:30 | -22.36478 | -46.22066 | 21349 ft | 361 kts | 192° |
| 2026-04-26 22:31 | -22.38952 | -46.22445 | 21012 ft | 357 kts | 192° |
| 2026-04-26 22:31 | -22.41408 | -46.22821 | 20699 ft | 355 kts | 192° |
| 2026-04-26 22:31 | -22.43849 | -46.23190 | 20315 ft | 352 kts | 192° |
| 2026-04-26 22:31 | -22.46248 | -46.23559 | 19734 ft | 345 kts | 192° |
| 2026-04-26 22:32 | -22.48622 | -46.23924 | 19274 ft | 347 kts | 192° |
| 2026-04-26 22:32 | -22.51017 | -46.24298 | 19070 ft | 347 kts | 192° |
| 2026-04-26 22:32 | -22.53391 | -46.24667 | 19035 ft | 343 kts | 192° |
| 2026-04-26 22:32 | -22.55760 | -46.25038 | 19026 ft | 343 kts | 192° |
| 2026-04-26 22:33 | -22.58108 | -46.25404 | 18781 ft | 340 kts | 192° |
| 2026-04-26 22:33 | -22.62727 | -46.26119 | 17573 ft | 332 kts | 192° |
| 2026-04-26 22:33 | -22.65007 | -46.26473 | 16838 ft | 330 kts | 192° |
| 2026-04-26 22:34 | -22.67271 | -46.26825 | 16139 ft | 326 kts | 191° |
| 2026-04-26 22:34 | -22.69512 | -46.27173 | 15501 ft | 324 kts | 191° |
| 2026-04-26 22:34 | -22.71717 | -46.27513 | 15245 ft | 319 kts | 191° |
| 2026-04-26 22:34 | -22.73916 | -46.27855 | 15064 ft | 319 kts | 191° |
| 2026-04-26 22:35 | -22.76109 | -46.28201 | 14864 ft | 317 kts | 192° |
| 2026-04-26 22:35 | -22.78244 | -46.28735 | 14626 ft | 313 kts | 202° |
| 2026-04-26 22:35 | -22.80204 | -46.29709 | 14383 ft | 309 kts | 211° |
| 2026-04-26 22:35 | -22.82075 | -46.30852 | 14172 ft | 308 kts | 212° |
| 2026-04-26 22:36 | -22.83929 | -46.32011 | 13951 ft | 307 kts | 212° |
| 2026-04-26 22:36 | -22.85778 | -46.33165 | 13707 ft | 306 kts | 212° |
| 2026-04-26 22:36 | -22.87622 | -46.34313 | 13458 ft | 306 kts | 212° |
| 2026-04-26 22:36 | -22.89461 | -46.35455 | 13205 ft | 304 kts | 212° |
| 2026-04-26 22:37 | -22.91294 | -46.36593 | 12953 ft | 303 kts | 212° |
| 2026-04-26 22:37 | -22.93120 | -46.37726 | 12703 ft | 302 kts | 212° |
| 2026-04-26 22:37 | -22.94939 | -46.38855 | 12470 ft | 300 kts | 212° |
| 2026-04-26 22:37 | -22.96747 | -46.39980 | 12221 ft | 299 kts | 212° |
| 2026-04-26 22:38 | -22.98555 | -46.41103 | 11971 ft | 299 kts | 212° |
| 2026-04-26 22:38 | -23.00354 | -46.42220 | 11740 ft | 298 kts | 212° |
| 2026-04-26 22:38 | -23.02151 | -46.43336 | 11514 ft | 297 kts | 213° |
| 2026-04-26 22:38 | -23.03941 | -46.44448 | 11271 ft | 295 kts | 213° |
| 2026-04-26 22:39 | -23.05718 | -46.45554 | 11041 ft | 294 kts | 213° |
| 2026-04-26 22:39 | -23.07492 | -46.46657 | 10818 ft | 292 kts | 213° |
| 2026-04-26 22:39 | -23.09252 | -46.47753 | 10716 ft | 293 kts | 213° |
| 2026-04-26 22:39 | -23.11022 | -46.48854 | 10629 ft | 292 kts | 213° |
| 2026-04-26 22:40 | -23.12784 | -46.49950 | 10525 ft | 292 kts | 213° |
| 2026-04-26 22:40 | -23.14543 | -46.51047 | 10380 ft | 291 kts | 213° |
| 2026-04-26 22:40 | -23.16297 | -46.52143 | 10215 ft | 292 kts | 213° |
| 2026-04-26 22:40 | -23.18135 | -46.53087 | 9969 ft | 295 kts | 200° |
| 2026-04-26 22:41 | -23.20190 | -46.53265 | 9641 ft | 302 kts | 174° |
| 2026-04-26 22:41 | -23.22143 | -46.52401 | 9290 ft | 309 kts | 145° |
| 2026-04-26 22:41 | -23.23542 | -46.50640 | 8931 ft | 311 kts | 119° |
| 2026-04-26 22:41 | -23.24575 | -46.48582 | 8553 ft | 310 kts | 120° |
| 2026-04-26 22:42 | -23.25670 | -46.46561 | 8239 ft | 309 kts | 121° |
| 2026-04-26 22:42 | -23.26642 | -46.44487 | 7902 ft | 308 kts | 108° |
| 2026-04-26 22:42 | -23.26956 | -46.42205 | 7592 ft | 305 kts | 90° |
| 2026-04-26 22:42 | -23.26970 | -46.39910 | 7283 ft | 302 kts | 85° |
| 2026-04-26 22:43 | -23.26581 | -46.37689 | 7048 ft | 297 kts | 70° |
| 2026-04-26 22:43 | -23.25953 | -46.35589 | 6984 ft | 296 kts | 68° |
| 2026-04-26 22:43 | -23.25277 | -46.33472 | 6981 ft | 296 kts | 68° |
| 2026-04-26 22:43 | -23.24612 | -46.31403 | 6983 ft | 283 kts | 68° |
| 2026-04-26 22:44 | -23.23985 | -46.29422 | 6986 ft | 270 kts | 68° |
| 2026-04-26 22:44 | -23.23392 | -46.27523 | 6983 ft | 262 kts | 68° |
| 2026-04-26 22:44 | -23.22799 | -46.25652 | 6890 ft | 260 kts | 68° |
| 2026-04-26 22:44 | -23.22212 | -46.23793 | 6646 ft | 260 kts | 68° |
| 2026-04-26 22:45 | -23.21627 | -46.21935 | 6390 ft | 260 kts | 68° |
| 2026-04-26 22:45 | -23.21042 | -46.20079 | 6128 ft | 259 kts | 68° |
| 2026-04-26 22:45 | -23.20456 | -46.18237 | 5988 ft | 258 kts | 68° |
| 2026-04-26 22:45 | -23.19868 | -46.16392 | 5968 ft | 259 kts | 68° |
| 2026-04-26 22:46 | -23.19271 | -46.14541 | 5969 ft | 259 kts | 68° |
| 2026-04-26 22:46 | -23.18678 | -46.12701 | 5972 ft | 259 kts | 68° |
| 2026-04-26 22:46 | -23.18079 | -46.10852 | 5971 ft | 259 kts | 68° |
| 2026-04-26 22:46 | -23.17480 | -46.09007 | 5972 ft | 259 kts | 68° |
| 2026-04-26 22:47 | -23.16881 | -46.07161 | 5973 ft | 259 kts | 68° |
| 2026-04-26 22:47 | -23.16282 | -46.05313 | 5973 ft | 259 kts | 68° |
| 2026-04-26 22:47 | -23.15683 | -46.03468 | 5972 ft | 259 kts | 68° |
| 2026-04-26 22:47 | -23.15083 | -46.01615 | 5973 ft | 260 kts | 68° |
| 2026-04-26 22:48 | -23.14480 | -45.99763 | 5979 ft | 260 kts | 68° |
| 2026-04-26 22:48 | -23.13900 | -45.97907 | 5976 ft | 260 kts | 72° |
| 2026-04-26 22:48 | -23.13846 | -45.95953 | 5976 ft | 262 kts | 102° |
| 2026-04-26 22:48 | -23.14565 | -45.94309 | 5967 ft | 260 kts | 130° |
| 2026-04-26 22:49 | -23.15986 | -45.93141 | 5966 ft | 256 kts | 161° |
| 2026-04-26 22:49 | -23.17710 | -45.92869 | 5965 ft | 250 kts | 191° |
| 2026-04-26 22:49 | -23.19301 | -45.93513 | 5970 ft | 243 kts | 216° |
| 2026-04-26 22:49 | -23.20664 | -45.94592 | 5964 ft | 243 kts | 222° |
| 2026-04-26 22:50 | -23.21978 | -45.95748 | 5965 ft | 243 kts | 223° |
| 2026-04-26 22:50 | -23.23287 | -45.96915 | 5964 ft | 244 kts | 223° |
| 2026-04-26 22:50 | -23.24580 | -45.98065 | 5961 ft | 243 kts | 223° |
| 2026-04-26 22:50 | -23.25906 | -45.99238 | 5959 ft | 242 kts | 223° |
| 2026-04-26 22:51 | -23.27197 | -46.00382 | 5954 ft | 243 kts | 223° |
| 2026-04-26 22:51 | -23.28523 | -46.01554 | 5958 ft | 242 kts | 222° |
| 2026-04-26 22:51 | -23.29683 | -46.02827 | 5956 ft | 238 kts | 238° |
| 2026-04-26 22:51 | -23.30455 | -46.04401 | 5958 ft | 235 kts | 250° |
| 2026-04-26 22:52 | -23.31041 | -46.06060 | 5960 ft | 235 kts | 252° |
| 2026-04-26 22:52 | -23.31588 | -46.07736 | 5959 ft | 235 kts | 253° |
| 2026-04-26 22:52 | -23.32125 | -46.09418 | 5961 ft | 236 kts | 253° |
| 2026-04-26 22:52 | -23.32659 | -46.11102 | 5962 ft | 235 kts | 253° |
| 2026-04-26 22:53 | -23.33204 | -46.12782 | 5959 ft | 236 kts | 250° |
| 2026-04-26 22:53 | -23.34000 | -46.14350 | 5965 ft | 236 kts | 244° |
| 2026-04-26 22:53 | -23.34628 | -46.15940 | 5969 ft | 222 kts | 254° |
| 2026-04-26 22:53 | -23.35076 | -46.17497 | 5974 ft | 209 kts | 256° |
| 2026-04-26 22:54 | -23.35480 | -46.18973 | 5995 ft | 200 kts | 257° |
| 2026-04-26 22:54 | -23.35862 | -46.20399 | 6001 ft | 190 kts | 257° |
| 2026-04-26 22:54 | -23.36224 | -46.21727 | 5990 ft | 179 kts | 257° |
| 2026-04-26 22:54 | -23.36581 | -46.23021 | 5977 ft | 178 kts | 257° |
| 2026-04-26 22:55 | -23.36940 | -46.24312 | 5984 ft | 179 kts | 256° |
| 2026-04-26 22:55 | -23.37299 | -46.25608 | 5913 ft | 179 kts | 257° |
| 2026-04-26 22:55 | -23.37651 | -46.26897 | 5698 ft | 174 kts | 257° |
| 2026-04-26 22:55 | -23.37976 | -46.28110 | 5480 ft | 160 kts | 257° |
| 2026-04-26 22:56 | -23.38280 | -46.29242 | 5276 ft | 153 kts | 257° |
| 2026-04-26 22:56 | -23.38578 | -46.30349 | 5080 ft | 152 kts | 257° |
| 2026-04-26 22:56 | -23.38877 | -46.31458 | 4872 ft | 153 kts | 257° |
| 2026-04-26 22:56 | -23.39181 | -46.32571 | 4686 ft | 153 kts | 255° |
| 2026-04-26 22:57 | -23.39486 | -46.33686 | 4490 ft | 154 kts | 256° |
| 2026-04-26 22:57 | -23.39786 | -46.34799 | 4274 ft | 153 kts | 255° |
| 2026-04-26 22:57 | -23.40084 | -46.35906 | 4093 ft | 152 kts | 255° |
| 2026-04-26 22:57 | -23.40383 | -46.37009 | 3907 ft | 151 kts | 256° |
| 2026-04-26 22:58 | -23.40667 | -46.38097 | 3723 ft | 151 kts | 255° |
| 2026-04-26 22:58 | -23.40955 | -46.39192 | 3542 ft | 150 kts | 256° |
| 2026-04-26 22:58 | -23.41248 | -46.40284 | 3413 ft | 151 kts | 255° |
| 2026-04-26 22:58 | -23.41535 | -46.41382 | 3245 ft | 151 kts | 255° |
| 2026-04-26 22:59 | -23.41831 | -46.42471 | 3037 ft | 149 kts | 254° |
| 2026-04-26 22:59 | -23.42132 | -46.43549 | 2776 ft | 147 kts | 253° |
| 2026-04-26 22:59 | -23.42418 | -46.44606 | 2562 ft | 144 kts | 252° |
| 2026-04-26 22:59 | -23.42697 | -46.45622 | 2476 ft | 128 kts | 253° |
| 2026-04-26 23:00 | -23.42882 | -46.46328 | 2478 ft | 66 kts | 253° |
| 2026-04-26 23:00 | -23.42998 | -46.46754 | 2477 ft | 48 kts | 253° |
| 2026-04-26 23:00 | -23.43066 | -46.47087 | 2474 ft | 44 kts | 270° |
| 2026-04-26 23:00 | -23.43027 | -46.47303 | 2474 ft | 8 kts | 283° |
| 2026-04-26 23:01 | -23.43015 | -46.47360 | 2474 ft | 0 kts | 283° |
| 2026-04-26 23:01 | -23.43013 | -46.47368 | 2473 ft | 5 kts | 283° |
| 2026-04-26 23:02 | -23.42997 | -46.47429 | 2477 ft | 9 kts | 295° |
| 2026-04-26 23:02 | -23.42948 | -46.47461 | 2475 ft | 8 kts | 344° |
| 2026-04-26 23:02 | -23.42888 | -46.47480 | 2478 ft | 9 kts | 343° |
| 2026-04-26 23:02 | -23.42822 | -46.47502 | 2478 ft | 10 kts | 343° |
| 2026-04-26 23:03 | -23.42749 | -46.47523 | 2476 ft | 10 kts | 359° |
| 2026-04-26 23:03 | -23.42707 | -46.47471 | 2477 ft | 10 kts | 66° |
| 2026-04-26 23:03 | -23.42697 | -46.47438 | 2476 ft | 0 kts | 73° |